<?xml version="1.0" encoding="UTF-8" standalone="no" ?>
<gpx xmlns="http://www.topografix.com/GPX/1/1" xmlns:xsi="http://www.w3.org/2001/XMLSchema-instance" xsi:schemaLocation="http://www.topografix.com/GPX/1/1 http://www.topografix.com/GPX/1/1/gpx.xsd" version="1.1" creator="VisuGPX - https://www.visugpx.com">
  <metadata>
    <name>2ème parcours du 14 octobre</name>
    <desc><![CDATA[djfq qjdfkjdv sdjk d ]]></desc>
  </metadata>
  <trk>
    <name><![CDATA[2ème parcours du 14 octobre_1]]></name>
    <trkseg>
      <trkpt lat="49.68496" lon="1.50108">
        <ele>103.9</ele>
        <time>2015-10-14T10:34:05Z</time>
      </trkpt>
      <trkpt lat="49.68496" lon="1.50108">
        <ele>173</ele>
        <time>2015-10-14T10:34:14Z</time>
      </trkpt>
      <trkpt lat="49.68521" lon="1.50126">
        <ele>148</ele>
        <time>2015-10-14T10:34:45Z</time>
      </trkpt>
      <trkpt lat="49.68541" lon="1.50127">
        <ele>151</ele>
        <time>2015-10-14T10:35:03Z</time>
      </trkpt>
      <trkpt lat="49.68563" lon="1.50127">
        <ele>150</ele>
        <time>2015-10-14T10:35:20Z</time>
      </trkpt>
      <trkpt lat="49.68577" lon="1.5013">
        <ele>151</ele>
        <time>2015-10-14T10:35:34Z</time>
      </trkpt>
      <trkpt lat="49.68586" lon="1.50131">
        <ele>153</ele>
        <time>2015-10-14T10:35:43Z</time>
      </trkpt>
      <trkpt lat="49.686" lon="1.50133">
        <ele>153</ele>
        <time>2015-10-14T10:35:59Z</time>
      </trkpt>
      <trkpt lat="49.68611" lon="1.50131">
        <ele>153</ele>
        <time>2015-10-14T10:36:10Z</time>
      </trkpt>
      <trkpt lat="49.68612" lon="1.50131">
        <ele>152</ele>
        <time>2015-10-14T10:36:19Z</time>
      </trkpt>
      <trkpt lat="49.68643" lon="1.50136">
        <ele>148</ele>
        <time>2015-10-14T10:37:16Z</time>
      </trkpt>
      <trkpt lat="49.68646" lon="1.50137">
        <ele>149</ele>
        <time>2015-10-14T10:37:22Z</time>
      </trkpt>
      <trkpt lat="49.68655" lon="1.50137">
        <ele>149</ele>
        <time>2015-10-14T10:37:31Z</time>
      </trkpt>
      <trkpt lat="49.68683" lon="1.5014">
        <ele>147</ele>
        <time>2015-10-14T10:40:26Z</time>
      </trkpt>
      <trkpt lat="49.68698" lon="1.50139">
        <ele>149</ele>
        <time>2015-10-14T10:40:41Z</time>
      </trkpt>
      <trkpt lat="49.68712" lon="1.50134">
        <ele>154</ele>
        <time>2015-10-14T10:41:02Z</time>
      </trkpt>
      <trkpt lat="49.68729" lon="1.50136">
        <ele>155</ele>
        <time>2015-10-14T10:41:20Z</time>
      </trkpt>
      <trkpt lat="49.68746" lon="1.50135">
        <ele>151</ele>
        <time>2015-10-14T10:41:38Z</time>
      </trkpt>
      <trkpt lat="49.68761" lon="1.5013">
        <ele>151</ele>
        <time>2015-10-14T10:41:50Z</time>
      </trkpt>
      <trkpt lat="49.6878" lon="1.50128">
        <ele>144</ele>
        <time>2015-10-14T10:42:07Z</time>
      </trkpt>
      <trkpt lat="49.68804" lon="1.50124">
        <ele>146</ele>
        <time>2015-10-14T10:42:24Z</time>
      </trkpt>
      <trkpt lat="49.68814" lon="1.50116">
        <ele>145</ele>
        <time>2015-10-14T10:42:33Z</time>
      </trkpt>
      <trkpt lat="49.68826" lon="1.50111">
        <ele>149</ele>
        <time>2015-10-14T10:42:44Z</time>
      </trkpt>
      <trkpt lat="49.68844" lon="1.50104">
        <ele>150</ele>
        <time>2015-10-14T10:43:00Z</time>
      </trkpt>
      <trkpt lat="49.68866" lon="1.50092">
        <ele>151</ele>
        <time>2015-10-14T10:43:18Z</time>
      </trkpt>
      <trkpt lat="49.68889" lon="1.50079">
        <ele>153</ele>
        <time>2015-10-14T10:43:38Z</time>
      </trkpt>
      <trkpt lat="49.68917" lon="1.50063">
        <ele>155</ele>
        <time>2015-10-14T10:44:02Z</time>
      </trkpt>
      <trkpt lat="49.68937" lon="1.50048">
        <ele>156</ele>
        <time>2015-10-14T10:44:17Z</time>
      </trkpt>
      <trkpt lat="49.68939" lon="1.50046">
        <ele>155</ele>
        <time>2015-10-14T10:44:18Z</time>
      </trkpt>
      <trkpt lat="49.68966" lon="1.50026">
        <ele>153</ele>
        <time>2015-10-14T10:44:52Z</time>
      </trkpt>
      <trkpt lat="49.68988" lon="1.50007">
        <ele>153</ele>
        <time>2015-10-14T10:45:06Z</time>
      </trkpt>
      <trkpt lat="49.69004" lon="1.49991">
        <ele>151</ele>
        <time>2015-10-14T10:45:23Z</time>
      </trkpt>
      <trkpt lat="49.69027" lon="1.49976">
        <ele>152</ele>
        <time>2015-10-14T10:45:41Z</time>
      </trkpt>
      <trkpt lat="49.69045" lon="1.49958">
        <ele>153</ele>
        <time>2015-10-14T10:46:02Z</time>
      </trkpt>
      <trkpt lat="49.69045" lon="1.49958">
        <ele>153</ele>
        <time>2015-10-14T10:46:10Z</time>
      </trkpt>
      <trkpt lat="49.69045" lon="1.49958">
        <ele>153</ele>
        <time>2015-10-14T10:46:11Z</time>
      </trkpt>
      <trkpt lat="49.6907" lon="1.49938">
        <ele>150</ele>
        <time>2015-10-14T10:47:01Z</time>
      </trkpt>
      <trkpt lat="49.69086" lon="1.49927">
        <ele>150</ele>
        <time>2015-10-14T10:47:17Z</time>
      </trkpt>
      <trkpt lat="49.69106" lon="1.49911">
        <ele>152</ele>
        <time>2015-10-14T10:47:35Z</time>
      </trkpt>
      <trkpt lat="49.69119" lon="1.49901">
        <ele>150</ele>
        <time>2015-10-14T10:47:49Z</time>
      </trkpt>
      <trkpt lat="49.69124" lon="1.49898">
        <ele>150</ele>
        <time>2015-10-14T10:47:53Z</time>
      </trkpt>
      <trkpt lat="49.69136" lon="1.49889">
        <ele>147</ele>
        <time>2015-10-14T10:48:08Z</time>
      </trkpt>
      <trkpt lat="49.69159" lon="1.49869">
        <ele>150</ele>
        <time>2015-10-14T10:48:29Z</time>
      </trkpt>
      <trkpt lat="49.69179" lon="1.49856">
        <ele>148</ele>
        <time>2015-10-14T10:48:47Z</time>
      </trkpt>
      <trkpt lat="49.69195" lon="1.49842">
        <ele>149</ele>
        <time>2015-10-14T10:49:01Z</time>
      </trkpt>
      <trkpt lat="49.69208" lon="1.49832">
        <ele>147</ele>
        <time>2015-10-14T10:49:15Z</time>
      </trkpt>
      <trkpt lat="49.69224" lon="1.4982">
        <ele>145</ele>
        <time>2015-10-14T10:49:30Z</time>
      </trkpt>
      <trkpt lat="49.69238" lon="1.49809">
        <ele>145</ele>
        <time>2015-10-14T10:49:44Z</time>
      </trkpt>
      <trkpt lat="49.69258" lon="1.49792">
        <ele>149</ele>
        <time>2015-10-14T10:50:02Z</time>
      </trkpt>
      <trkpt lat="49.69274" lon="1.49778">
        <ele>145</ele>
        <time>2015-10-14T10:50:20Z</time>
      </trkpt>
      <trkpt lat="49.69301" lon="1.49758">
        <ele>151</ele>
        <time>2015-10-14T10:50:47Z</time>
      </trkpt>
      <trkpt lat="49.69322" lon="1.49749">
        <ele>152</ele>
        <time>2015-10-14T10:51:02Z</time>
      </trkpt>
      <trkpt lat="49.69345" lon="1.49736">
        <ele>150</ele>
        <time>2015-10-14T10:51:19Z</time>
      </trkpt>
      <trkpt lat="49.69359" lon="1.49728">
        <ele>149</ele>
        <time>2015-10-14T10:51:31Z</time>
      </trkpt>
      <trkpt lat="49.69392" lon="1.49711">
        <ele>149</ele>
        <time>2015-10-14T10:52:04Z</time>
      </trkpt>
      <trkpt lat="49.69402" lon="1.49704">
        <ele>152</ele>
        <time>2015-10-14T10:52:13Z</time>
      </trkpt>
      <trkpt lat="49.69422" lon="1.49691">
        <ele>148</ele>
        <time>2015-10-14T10:52:33Z</time>
      </trkpt>
      <trkpt lat="49.69395" lon="1.49648">
        <ele>146</ele>
        <time>2015-10-14T10:53:05Z</time>
      </trkpt>
      <trkpt lat="49.6939" lon="1.49635">
        <ele>147</ele>
        <time>2015-10-14T10:53:15Z</time>
      </trkpt>
      <trkpt lat="49.6938" lon="1.4961">
        <ele>143</ele>
        <time>2015-10-14T10:53:38Z</time>
      </trkpt>
      <trkpt lat="49.69375" lon="1.49572">
        <ele>141</ele>
        <time>2015-10-14T10:54:03Z</time>
      </trkpt>
      <trkpt lat="49.69373" lon="1.49542">
        <ele>146</ele>
        <time>2015-10-14T10:54:19Z</time>
      </trkpt>
      <trkpt lat="49.69366" lon="1.49505">
        <ele>152</ele>
        <time>2015-10-14T10:54:43Z</time>
      </trkpt>
      <trkpt lat="49.69356" lon="1.49483">
        <ele>153</ele>
        <time>2015-10-14T10:55:01Z</time>
      </trkpt>
      <trkpt lat="49.69354" lon="1.49458">
        <ele>153</ele>
        <time>2015-10-14T10:55:23Z</time>
      </trkpt>
      <trkpt lat="49.69358" lon="1.49435">
        <ele>153</ele>
        <time>2015-10-14T10:55:36Z</time>
      </trkpt>
      <trkpt lat="49.69359" lon="1.49415">
        <ele>155</ele>
        <time>2015-10-14T10:55:49Z</time>
      </trkpt>
      <trkpt lat="49.69357" lon="1.494">
        <ele>155</ele>
        <time>2015-10-14T10:55:59Z</time>
      </trkpt>
      <trkpt lat="49.69356" lon="1.49373">
        <ele>158</ele>
        <time>2015-10-14T10:56:16Z</time>
      </trkpt>
      <trkpt lat="49.69375" lon="1.49354">
        <ele>161</ele>
        <time>2015-10-14T10:56:42Z</time>
      </trkpt>
      <trkpt lat="49.69389" lon="1.49351">
        <ele>161</ele>
        <time>2015-10-14T10:56:56Z</time>
      </trkpt>
      <trkpt lat="49.69406" lon="1.49352">
        <ele>164</ele>
        <time>2015-10-14T10:57:10Z</time>
      </trkpt>
      <trkpt lat="49.69416" lon="1.49356">
        <ele>162</ele>
        <time>2015-10-14T10:57:17Z</time>
      </trkpt>
      <trkpt lat="49.69426" lon="1.4935">
        <ele>164</ele>
        <time>2015-10-14T10:57:31Z</time>
      </trkpt>
      <trkpt lat="49.6944" lon="1.49344">
        <ele>163</ele>
        <time>2015-10-14T10:57:46Z</time>
      </trkpt>
      <trkpt lat="49.69454" lon="1.4934">
        <ele>159</ele>
        <time>2015-10-14T10:58:02Z</time>
      </trkpt>
      <trkpt lat="49.69473" lon="1.4934">
        <ele>158</ele>
        <time>2015-10-14T10:58:20Z</time>
      </trkpt>
      <trkpt lat="49.69487" lon="1.49334">
        <ele>157</ele>
        <time>2015-10-14T10:58:32Z</time>
      </trkpt>
      <trkpt lat="49.69505" lon="1.49332">
        <ele>157</ele>
        <time>2015-10-14T10:58:47Z</time>
      </trkpt>
      <trkpt lat="49.69521" lon="1.49334">
        <ele>158</ele>
        <time>2015-10-14T10:59:01Z</time>
      </trkpt>
      <trkpt lat="49.69548" lon="1.49316">
        <ele>160</ele>
        <time>2015-10-14T10:59:29Z</time>
      </trkpt>
      <trkpt lat="49.69546" lon="1.49294">
        <ele>154</ele>
        <time>2015-10-14T10:59:48Z</time>
      </trkpt>
      <trkpt lat="49.69543" lon="1.49289">
        <ele>155</ele>
        <time>2015-10-14T10:59:53Z</time>
      </trkpt>
      <trkpt lat="49.69543" lon="1.49286">
        <ele>154</ele>
        <time>2015-10-14T11:00:04Z</time>
      </trkpt>
      <trkpt lat="49.69546" lon="1.49325">
        <ele>151</ele>
        <time>2015-10-14T11:45:15Z</time>
      </trkpt>
      <trkpt lat="49.69564" lon="1.49331">
        <ele>151</ele>
        <time>2015-10-14T11:45:36Z</time>
      </trkpt>
      <trkpt lat="49.69576" lon="1.49342">
        <ele>150</ele>
        <time>2015-10-14T11:45:52Z</time>
      </trkpt>
      <trkpt lat="49.69588" lon="1.49355">
        <ele>149</ele>
        <time>2015-10-14T11:46:09Z</time>
      </trkpt>
      <trkpt lat="49.69597" lon="1.49374">
        <ele>150</ele>
        <time>2015-10-14T11:46:24Z</time>
      </trkpt>
      <trkpt lat="49.69609" lon="1.49393">
        <ele>149</ele>
        <time>2015-10-14T11:46:41Z</time>
      </trkpt>
      <trkpt lat="49.69622" lon="1.49413">
        <ele>148</ele>
        <time>2015-10-14T11:46:57Z</time>
      </trkpt>
      <trkpt lat="49.69629" lon="1.49429">
        <ele>147</ele>
        <time>2015-10-14T11:47:09Z</time>
      </trkpt>
      <trkpt lat="49.69636" lon="1.49442">
        <ele>147</ele>
        <time>2015-10-14T11:47:20Z</time>
      </trkpt>
      <trkpt lat="49.69652" lon="1.49469">
        <ele>148</ele>
        <time>2015-10-14T11:47:41Z</time>
      </trkpt>
      <trkpt lat="49.69668" lon="1.49488">
        <ele>148</ele>
        <time>2015-10-14T11:48:00Z</time>
      </trkpt>
      <trkpt lat="49.69671" lon="1.4951">
        <ele>147</ele>
        <time>2015-10-14T11:48:17Z</time>
      </trkpt>
      <trkpt lat="49.69668" lon="1.4953">
        <ele>148</ele>
        <time>2015-10-14T11:48:33Z</time>
      </trkpt>
      <trkpt lat="49.69668" lon="1.4953">
        <ele>100</ele>
        <time>2015-10-14T11:51:22Z</time>
      </trkpt>
      <trkpt lat="49.69668" lon="1.4953">
        <ele>100</ele>
        <time>2015-10-14T11:58:53Z</time>
      </trkpt>
      <trkpt lat="49.69669" lon="1.49531">
        <ele>147</ele>
        <time>2015-10-14T12:00:03Z</time>
      </trkpt>
      <trkpt lat="49.69687" lon="1.49538">
        <ele>147</ele>
        <time>2015-10-14T12:00:38Z</time>
      </trkpt>
      <trkpt lat="49.69701" lon="1.49526">
        <ele>146</ele>
        <time>2015-10-14T12:00:52Z</time>
      </trkpt>
      <trkpt lat="49.69713" lon="1.49518">
        <ele>145</ele>
        <time>2015-10-14T12:01:05Z</time>
      </trkpt>
      <trkpt lat="49.69734" lon="1.49503">
        <ele>144</ele>
        <time>2015-10-14T12:01:23Z</time>
      </trkpt>
      <trkpt lat="49.69748" lon="1.49489">
        <ele>145</ele>
        <time>2015-10-14T12:01:39Z</time>
      </trkpt>
      <trkpt lat="49.69767" lon="1.49476">
        <ele>145</ele>
        <time>2015-10-14T12:01:56Z</time>
      </trkpt>
      <trkpt lat="49.6978" lon="1.49465">
        <ele>145</ele>
        <time>2015-10-14T12:02:11Z</time>
      </trkpt>
      <trkpt lat="49.69798" lon="1.4945">
        <ele>145</ele>
        <time>2015-10-14T12:02:29Z</time>
      </trkpt>
      <trkpt lat="49.69815" lon="1.49435">
        <ele>146</ele>
        <time>2015-10-14T12:02:46Z</time>
      </trkpt>
      <trkpt lat="49.69826" lon="1.49426">
        <ele>144</ele>
        <time>2015-10-14T12:03:00Z</time>
      </trkpt>
      <trkpt lat="49.69835" lon="1.49416">
        <ele>144</ele>
        <time>2015-10-14T12:03:11Z</time>
      </trkpt>
      <trkpt lat="49.69852" lon="1.49394">
        <ele>143</ele>
        <time>2015-10-14T12:03:31Z</time>
      </trkpt>
      <trkpt lat="49.69874" lon="1.49373">
        <ele>145</ele>
        <time>2015-10-14T12:03:53Z</time>
      </trkpt>
      <trkpt lat="49.69892" lon="1.49356">
        <ele>146</ele>
        <time>2015-10-14T12:04:11Z</time>
      </trkpt>
      <trkpt lat="49.69904" lon="1.49343">
        <ele>145</ele>
        <time>2015-10-14T12:04:24Z</time>
      </trkpt>
      <trkpt lat="49.69915" lon="1.49328">
        <ele>144</ele>
        <time>2015-10-14T12:04:38Z</time>
      </trkpt>
      <trkpt lat="49.69931" lon="1.49305">
        <ele>143</ele>
        <time>2015-10-14T12:04:59Z</time>
      </trkpt>
      <trkpt lat="49.69944" lon="1.49286">
        <ele>143</ele>
        <time>2015-10-14T12:05:15Z</time>
      </trkpt>
      <trkpt lat="49.69956" lon="1.49273">
        <ele>145</ele>
        <time>2015-10-14T12:05:27Z</time>
      </trkpt>
      <trkpt lat="49.69966" lon="1.4926">
        <ele>145</ele>
        <time>2015-10-14T12:05:38Z</time>
      </trkpt>
      <trkpt lat="49.69977" lon="1.4924">
        <ele>147</ele>
        <time>2015-10-14T12:05:51Z</time>
      </trkpt>
      <trkpt lat="49.69987" lon="1.49224">
        <ele>146</ele>
        <time>2015-10-14T12:06:04Z</time>
      </trkpt>
      <trkpt lat="49.69995" lon="1.49212">
        <ele>147</ele>
        <time>2015-10-14T12:06:14Z</time>
      </trkpt>
      <trkpt lat="49.70006" lon="1.49194">
        <ele>146</ele>
        <time>2015-10-14T12:06:29Z</time>
      </trkpt>
      <trkpt lat="49.70018" lon="1.49172">
        <ele>145</ele>
        <time>2015-10-14T12:06:46Z</time>
      </trkpt>
      <trkpt lat="49.70031" lon="1.4915">
        <ele>145</ele>
        <time>2015-10-14T12:07:02Z</time>
      </trkpt>
      <trkpt lat="49.70043" lon="1.49129">
        <ele>144</ele>
        <time>2015-10-14T12:07:18Z</time>
      </trkpt>
      <trkpt lat="49.70054" lon="1.49107">
        <ele>144</ele>
        <time>2015-10-14T12:07:34Z</time>
      </trkpt>
      <trkpt lat="49.70063" lon="1.4909">
        <ele>144</ele>
        <time>2015-10-14T12:07:47Z</time>
      </trkpt>
      <trkpt lat="49.70072" lon="1.49069">
        <ele>143</ele>
        <time>2015-10-14T12:08:04Z</time>
      </trkpt>
      <trkpt lat="49.70079" lon="1.49058">
        <ele>145</ele>
        <time>2015-10-14T12:08:14Z</time>
      </trkpt>
      <trkpt lat="49.7008" lon="1.49058">
        <ele>148</ele>
        <time>2015-10-14T12:08:22Z</time>
      </trkpt>
      <trkpt lat="49.70096" lon="1.49017">
        <ele>146</ele>
        <time>2015-10-14T12:10:06Z</time>
      </trkpt>
      <trkpt lat="49.70096" lon="1.49017">
        <ele>146</ele>
        <time>2015-10-14T12:10:13Z</time>
      </trkpt>
      <trkpt lat="49.70096" lon="1.49017">
        <ele>146</ele>
        <time>2015-10-14T12:10:14Z</time>
      </trkpt>
      <trkpt lat="49.70103" lon="1.48999">
        <ele>143</ele>
        <time>2015-10-14T12:10:25Z</time>
      </trkpt>
      <trkpt lat="49.7011" lon="1.48979">
        <ele>142</ele>
        <time>2015-10-14T12:10:37Z</time>
      </trkpt>
      <trkpt lat="49.70123" lon="1.48949">
        <ele>143</ele>
        <time>2015-10-14T12:10:56Z</time>
      </trkpt>
      <trkpt lat="49.70128" lon="1.48936">
        <ele>142</ele>
        <time>2015-10-14T12:11:06Z</time>
      </trkpt>
      <trkpt lat="49.70138" lon="1.48907">
        <ele>146</ele>
        <time>2015-10-14T12:11:21Z</time>
      </trkpt>
      <trkpt lat="49.70145" lon="1.48888">
        <ele>146</ele>
        <time>2015-10-14T12:11:35Z</time>
      </trkpt>
      <trkpt lat="49.70154" lon="1.48865">
        <ele>144</ele>
        <time>2015-10-14T12:11:53Z</time>
      </trkpt>
      <trkpt lat="49.70158" lon="1.48853">
        <ele>145</ele>
        <time>2015-10-14T12:12:00Z</time>
      </trkpt>
      <trkpt lat="49.7017" lon="1.48821">
        <ele>151</ele>
        <time>2015-10-14T12:12:16Z</time>
      </trkpt>
      <trkpt lat="49.70175" lon="1.48804">
        <ele>148</ele>
        <time>2015-10-14T12:12:27Z</time>
      </trkpt>
      <trkpt lat="49.70184" lon="1.48784">
        <ele>146</ele>
        <time>2015-10-14T12:12:43Z</time>
      </trkpt>
      <trkpt lat="49.70195" lon="1.48749">
        <ele>150</ele>
        <time>2015-10-14T12:12:59Z</time>
      </trkpt>
      <trkpt lat="49.70201" lon="1.48736">
        <ele>151</ele>
        <time>2015-10-14T12:13:08Z</time>
      </trkpt>
      <trkpt lat="49.70205" lon="1.48721">
        <ele>150</ele>
        <time>2015-10-14T12:13:18Z</time>
      </trkpt>
      <trkpt lat="49.70215" lon="1.48695">
        <ele>150</ele>
        <time>2015-10-14T12:13:35Z</time>
      </trkpt>
      <trkpt lat="49.7022" lon="1.48681">
        <ele>150</ele>
        <time>2015-10-14T12:13:44Z</time>
      </trkpt>
      <trkpt lat="49.70231" lon="1.48658">
        <ele>150</ele>
        <time>2015-10-14T12:14:04Z</time>
      </trkpt>
      <trkpt lat="49.70238" lon="1.48634">
        <ele>146</ele>
        <time>2015-10-14T12:14:22Z</time>
      </trkpt>
      <trkpt lat="49.70245" lon="1.4861">
        <ele>145</ele>
        <time>2015-10-14T12:14:36Z</time>
      </trkpt>
      <trkpt lat="49.7025" lon="1.48594">
        <ele>147</ele>
        <time>2015-10-14T12:14:44Z</time>
      </trkpt>
      <trkpt lat="49.70255" lon="1.48585">
        <ele>147</ele>
        <time>2015-10-14T12:14:52Z</time>
      </trkpt>
      <trkpt lat="49.7026" lon="1.48569">
        <ele>147</ele>
        <time>2015-10-14T12:15:05Z</time>
      </trkpt>
      <trkpt lat="49.70269" lon="1.48543">
        <ele>147</ele>
        <time>2015-10-14T12:15:23Z</time>
      </trkpt>
      <trkpt lat="49.70275" lon="1.48519">
        <ele>146</ele>
        <time>2015-10-14T12:15:37Z</time>
      </trkpt>
      <trkpt lat="49.70285" lon="1.48494">
        <ele>147</ele>
        <time>2015-10-14T12:15:54Z</time>
      </trkpt>
      <trkpt lat="49.70294" lon="1.48469">
        <ele>145</ele>
        <time>2015-10-14T12:16:09Z</time>
      </trkpt>
      <trkpt lat="49.70303" lon="1.48442">
        <ele>143</ele>
        <time>2015-10-14T12:16:28Z</time>
      </trkpt>
      <trkpt lat="49.70313" lon="1.48417">
        <ele>143</ele>
        <time>2015-10-14T12:16:45Z</time>
      </trkpt>
      <trkpt lat="49.70317" lon="1.48407">
        <ele>141</ele>
        <time>2015-10-14T12:16:56Z</time>
      </trkpt>
      <trkpt lat="49.70321" lon="1.48394">
        <ele>140</ele>
        <time>2015-10-14T12:17:08Z</time>
      </trkpt>
      <trkpt lat="49.70327" lon="1.48379">
        <ele>140</ele>
        <time>2015-10-14T12:17:17Z</time>
      </trkpt>
      <trkpt lat="49.70343" lon="1.48336">
        <ele>141</ele>
        <time>2015-10-14T12:17:40Z</time>
      </trkpt>
      <trkpt lat="49.70351" lon="1.48311">
        <ele>148</ele>
        <time>2015-10-14T12:17:48Z</time>
      </trkpt>
      <trkpt lat="49.70359" lon="1.48291">
        <ele>147</ele>
        <time>2015-10-14T12:18:02Z</time>
      </trkpt>
      <trkpt lat="49.70361" lon="1.48283">
        <ele>147</ele>
        <time>2015-10-14T12:18:07Z</time>
      </trkpt>
      <trkpt lat="49.70363" lon="1.48275">
        <ele>145</ele>
        <time>2015-10-14T12:18:15Z</time>
      </trkpt>
      <trkpt lat="49.70368" lon="1.48261">
        <ele>144</ele>
        <time>2015-10-14T12:18:23Z</time>
      </trkpt>
      <trkpt lat="49.70377" lon="1.48237">
        <ele>144</ele>
        <time>2015-10-14T12:18:38Z</time>
      </trkpt>
      <trkpt lat="49.70386" lon="1.48214">
        <ele>144</ele>
        <time>2015-10-14T12:18:53Z</time>
      </trkpt>
      <trkpt lat="49.70391" lon="1.48198">
        <ele>142</ele>
        <time>2015-10-14T12:19:06Z</time>
      </trkpt>
      <trkpt lat="49.70396" lon="1.48184">
        <ele>142</ele>
        <time>2015-10-14T12:19:14Z</time>
      </trkpt>
      <trkpt lat="49.70403" lon="1.48166">
        <ele>143</ele>
        <time>2015-10-14T12:19:24Z</time>
      </trkpt>
      <trkpt lat="49.70413" lon="1.48139">
        <ele>146</ele>
        <time>2015-10-14T12:19:36Z</time>
      </trkpt>
      <trkpt lat="49.7042" lon="1.48123">
        <ele>149</ele>
        <time>2015-10-14T12:19:47Z</time>
      </trkpt>
      <trkpt lat="49.7043" lon="1.48097">
        <ele>146</ele>
        <time>2015-10-14T12:20:07Z</time>
      </trkpt>
      <trkpt lat="49.70442" lon="1.4806">
        <ele>147</ele>
        <time>2015-10-14T12:20:26Z</time>
      </trkpt>
      <trkpt lat="49.70454" lon="1.48027">
        <ele>151</ele>
        <time>2015-10-14T12:20:43Z</time>
      </trkpt>
      <trkpt lat="49.70461" lon="1.4801">
        <ele>150</ele>
        <time>2015-10-14T12:20:55Z</time>
      </trkpt>
      <trkpt lat="49.70469" lon="1.47986">
        <ele>147</ele>
        <time>2015-10-14T12:21:12Z</time>
      </trkpt>
      <trkpt lat="49.70477" lon="1.47966">
        <ele>147</ele>
        <time>2015-10-14T12:21:26Z</time>
      </trkpt>
      <trkpt lat="49.70485" lon="1.47945">
        <ele>146</ele>
        <time>2015-10-14T12:21:41Z</time>
      </trkpt>
      <trkpt lat="49.70495" lon="1.47915">
        <ele>146</ele>
        <time>2015-10-14T12:22:02Z</time>
      </trkpt>
      <trkpt lat="49.70503" lon="1.47889">
        <ele>149</ele>
        <time>2015-10-14T12:22:19Z</time>
      </trkpt>
      <trkpt lat="49.7051" lon="1.47865">
        <ele>151</ele>
        <time>2015-10-14T12:22:29Z</time>
      </trkpt>
      <trkpt lat="49.70517" lon="1.47844">
        <ele>146</ele>
        <time>2015-10-14T12:22:43Z</time>
      </trkpt>
      <trkpt lat="49.70522" lon="1.47826">
        <ele>146</ele>
        <time>2015-10-14T12:22:54Z</time>
      </trkpt>
      <trkpt lat="49.70527" lon="1.47814">
        <ele>149</ele>
        <time>2015-10-14T12:23:09Z</time>
      </trkpt>
      <trkpt lat="49.70533" lon="1.47782">
        <ele>146</ele>
        <time>2015-10-14T12:23:26Z</time>
      </trkpt>
      <trkpt lat="49.70534" lon="1.47757">
        <ele>138</ele>
        <time>2015-10-14T12:23:39Z</time>
      </trkpt>
      <trkpt lat="49.70543" lon="1.47732">
        <ele>142</ele>
        <time>2015-10-14T12:23:55Z</time>
      </trkpt>
      <trkpt lat="49.70546" lon="1.47717">
        <ele>144</ele>
        <time>2015-10-14T12:24:00Z</time>
      </trkpt>
      <trkpt lat="49.70549" lon="1.47704">
        <ele>144</ele>
        <time>2015-10-14T12:24:13Z</time>
      </trkpt>
      <trkpt lat="49.70557" lon="1.47675">
        <ele>146</ele>
        <time>2015-10-14T12:24:31Z</time>
      </trkpt>
      <trkpt lat="49.70564" lon="1.47643">
        <ele>146</ele>
        <time>2015-10-14T12:24:48Z</time>
      </trkpt>
      <trkpt lat="49.70567" lon="1.47619">
        <ele>144</ele>
        <time>2015-10-14T12:25:09Z</time>
      </trkpt>
      <trkpt lat="49.70573" lon="1.47589">
        <ele>145</ele>
        <time>2015-10-14T12:25:24Z</time>
      </trkpt>
      <trkpt lat="49.70578" lon="1.47562">
        <ele>145</ele>
        <time>2015-10-14T12:25:39Z</time>
      </trkpt>
      <trkpt lat="49.70588" lon="1.47522">
        <ele>147</ele>
        <time>2015-10-14T12:25:56Z</time>
      </trkpt>
      <trkpt lat="49.70588" lon="1.47507">
        <ele>142</ele>
        <time>2015-10-14T12:26:06Z</time>
      </trkpt>
      <trkpt lat="49.7059" lon="1.47497">
        <ele>141</ele>
        <time>2015-10-14T12:26:12Z</time>
      </trkpt>
      <trkpt lat="49.70593" lon="1.47485">
        <ele>141</ele>
        <time>2015-10-14T12:26:25Z</time>
      </trkpt>
      <trkpt lat="49.70601" lon="1.47447">
        <ele>142</ele>
        <time>2015-10-14T12:26:39Z</time>
      </trkpt>
      <trkpt lat="49.70603" lon="1.47425">
        <ele>144</ele>
        <time>2015-10-14T12:26:51Z</time>
      </trkpt>
      <trkpt lat="49.70606" lon="1.4741">
        <ele>143</ele>
        <time>2015-10-14T12:27:01Z</time>
      </trkpt>
      <trkpt lat="49.70609" lon="1.47393">
        <ele>145</ele>
        <time>2015-10-14T12:27:07Z</time>
      </trkpt>
      <trkpt lat="49.70611" lon="1.47384">
        <ele>144</ele>
        <time>2015-10-14T12:27:12Z</time>
      </trkpt>
      <trkpt lat="49.70615" lon="1.47356">
        <ele>142</ele>
        <time>2015-10-14T12:27:27Z</time>
      </trkpt>
      <trkpt lat="49.7062" lon="1.47335">
        <ele>142</ele>
        <time>2015-10-14T12:27:40Z</time>
      </trkpt>
      <trkpt lat="49.70622" lon="1.4732">
        <ele>143</ele>
        <time>2015-10-14T12:27:47Z</time>
      </trkpt>
      <trkpt lat="49.70624" lon="1.47308">
        <ele>144</ele>
        <time>2015-10-14T12:27:56Z</time>
      </trkpt>
      <trkpt lat="49.7063" lon="1.47281">
        <ele>147</ele>
        <time>2015-10-14T12:28:08Z</time>
      </trkpt>
      <trkpt lat="49.70634" lon="1.4726">
        <ele>147</ele>
        <time>2015-10-14T12:28:20Z</time>
      </trkpt>
      <trkpt lat="49.70638" lon="1.47245">
        <ele>146</ele>
        <time>2015-10-14T12:28:32Z</time>
      </trkpt>
      <trkpt lat="49.70643" lon="1.47225">
        <ele>148</ele>
        <time>2015-10-14T12:28:43Z</time>
      </trkpt>
      <trkpt lat="49.70647" lon="1.47199">
        <ele>147</ele>
        <time>2015-10-14T12:28:57Z</time>
      </trkpt>
      <trkpt lat="49.70652" lon="1.4718">
        <ele>149</ele>
        <time>2015-10-14T12:29:12Z</time>
      </trkpt>
      <trkpt lat="49.70658" lon="1.47153">
        <ele>150</ele>
        <time>2015-10-14T12:29:27Z</time>
      </trkpt>
      <trkpt lat="49.70661" lon="1.47139">
        <ele>148</ele>
        <time>2015-10-14T12:29:36Z</time>
      </trkpt>
      <trkpt lat="49.70664" lon="1.47117">
        <ele>147</ele>
        <time>2015-10-14T12:29:49Z</time>
      </trkpt>
      <trkpt lat="49.70671" lon="1.4709">
        <ele>150</ele>
        <time>2015-10-14T12:30:01Z</time>
      </trkpt>
      <trkpt lat="49.70674" lon="1.4707">
        <ele>151</ele>
        <time>2015-10-14T12:30:12Z</time>
      </trkpt>
      <trkpt lat="49.70679" lon="1.47048">
        <ele>148</ele>
        <time>2015-10-14T12:30:27Z</time>
      </trkpt>
      <trkpt lat="49.70688" lon="1.47021">
        <ele>151</ele>
        <time>2015-10-14T12:30:43Z</time>
      </trkpt>
      <trkpt lat="49.70694" lon="1.46997">
        <ele>148</ele>
        <time>2015-10-14T12:30:58Z</time>
      </trkpt>
      <trkpt lat="49.70705" lon="1.46967">
        <ele>148</ele>
        <time>2015-10-14T12:31:17Z</time>
      </trkpt>
      <trkpt lat="49.70712" lon="1.46943">
        <ele>147</ele>
        <time>2015-10-14T12:31:32Z</time>
      </trkpt>
      <trkpt lat="49.70721" lon="1.46921">
        <ele>148</ele>
        <time>2015-10-14T12:31:45Z</time>
      </trkpt>
      <trkpt lat="49.70733" lon="1.46896">
        <ele>147</ele>
        <time>2015-10-14T12:32:02Z</time>
      </trkpt>
      <trkpt lat="49.70749" lon="1.46863">
        <ele>147</ele>
        <time>2015-10-14T12:32:27Z</time>
      </trkpt>
      <trkpt lat="49.70761" lon="1.46837">
        <ele>142</ele>
        <time>2015-10-14T12:32:44Z</time>
      </trkpt>
      <trkpt lat="49.70779" lon="1.46813">
        <ele>143</ele>
        <time>2015-10-14T12:33:02Z</time>
      </trkpt>
      <trkpt lat="49.70795" lon="1.46791">
        <ele>143</ele>
        <time>2015-10-14T12:33:22Z</time>
      </trkpt>
      <trkpt lat="49.70808" lon="1.46772">
        <ele>140</ele>
        <time>2015-10-14T12:33:37Z</time>
      </trkpt>
      <trkpt lat="49.70825" lon="1.46753">
        <ele>138</ele>
        <time>2015-10-14T12:33:55Z</time>
      </trkpt>
      <trkpt lat="49.70839" lon="1.46737">
        <ele>140</ele>
        <time>2015-10-14T12:34:13Z</time>
      </trkpt>
      <trkpt lat="49.70839" lon="1.46737">
        <ele>140</ele>
        <time>2015-10-14T12:44:09Z</time>
      </trkpt>
      <trkpt lat="49.70853" lon="1.46728">
        <ele>147</ele>
        <time>2015-10-14T12:44:21Z</time>
      </trkpt>
      <trkpt lat="49.70861" lon="1.46717">
        <ele>146</ele>
        <time>2015-10-14T12:44:32Z</time>
      </trkpt>
      <trkpt lat="49.70873" lon="1.46708">
        <ele>145</ele>
        <time>2015-10-14T12:44:48Z</time>
      </trkpt>
      <trkpt lat="49.70891" lon="1.46695">
        <ele>146</ele>
        <time>2015-10-14T12:45:07Z</time>
      </trkpt>
      <trkpt lat="49.70904" lon="1.46683">
        <ele>144</ele>
        <time>2015-10-14T12:45:23Z</time>
      </trkpt>
      <trkpt lat="49.70915" lon="1.46675">
        <ele>144</ele>
        <time>2015-10-14T12:45:34Z</time>
      </trkpt>
      <trkpt lat="49.70932" lon="1.46663">
        <ele>146</ele>
        <time>2015-10-14T12:45:49Z</time>
      </trkpt>
      <trkpt lat="49.70945" lon="1.46654">
        <ele>147</ele>
        <time>2015-10-14T12:46:02Z</time>
      </trkpt>
      <trkpt lat="49.70966" lon="1.46641">
        <ele>149</ele>
        <time>2015-10-14T12:46:21Z</time>
      </trkpt>
      <trkpt lat="49.70979" lon="1.46632">
        <ele>147</ele>
        <time>2015-10-14T12:46:35Z</time>
      </trkpt>
      <trkpt lat="49.70993" lon="1.46623">
        <ele>141</ele>
        <time>2015-10-14T12:46:52Z</time>
      </trkpt>
      <trkpt lat="49.71006" lon="1.46617">
        <ele>143</ele>
        <time>2015-10-14T12:47:03Z</time>
      </trkpt>
      <trkpt lat="49.71024" lon="1.46605">
        <ele>144</ele>
        <time>2015-10-14T12:47:19Z</time>
      </trkpt>
      <trkpt lat="49.7104" lon="1.46595">
        <ele>146</ele>
        <time>2015-10-14T12:47:34Z</time>
      </trkpt>
      <trkpt lat="49.71058" lon="1.46586">
        <ele>149</ele>
        <time>2015-10-14T12:47:52Z</time>
      </trkpt>
      <trkpt lat="49.71077" lon="1.46573">
        <ele>149</ele>
        <time>2015-10-14T12:48:10Z</time>
      </trkpt>
      <trkpt lat="49.71092" lon="1.46562">
        <ele>147</ele>
        <time>2015-10-14T12:48:24Z</time>
      </trkpt>
      <trkpt lat="49.7111" lon="1.46551">
        <ele>145</ele>
        <time>2015-10-14T12:48:43Z</time>
      </trkpt>
      <trkpt lat="49.71125" lon="1.46536">
        <ele>142</ele>
        <time>2015-10-14T12:48:58Z</time>
      </trkpt>
      <trkpt lat="49.71148" lon="1.4652">
        <ele>145</ele>
        <time>2015-10-14T12:49:17Z</time>
      </trkpt>
      <trkpt lat="49.71184" lon="1.46494">
        <ele>152</ele>
        <time>2015-10-14T12:49:53Z</time>
      </trkpt>
      <trkpt lat="49.71198" lon="1.4648">
        <ele>148</ele>
        <time>2015-10-14T12:50:08Z</time>
      </trkpt>
      <trkpt lat="49.71214" lon="1.46466">
        <ele>147</ele>
        <time>2015-10-14T12:50:25Z</time>
      </trkpt>
      <trkpt lat="49.71238" lon="1.46439">
        <ele>144</ele>
        <time>2015-10-14T12:50:52Z</time>
      </trkpt>
      <trkpt lat="49.71274" lon="1.464">
        <ele>141</ele>
        <time>2015-10-14T12:51:30Z</time>
      </trkpt>
      <trkpt lat="49.71294" lon="1.46374">
        <ele>141</ele>
        <time>2015-10-14T12:51:53Z</time>
      </trkpt>
      <trkpt lat="49.71304" lon="1.46364">
        <ele>141</ele>
        <time>2015-10-14T12:52:03Z</time>
      </trkpt>
      <trkpt lat="49.71334" lon="1.46323">
        <ele>145</ele>
        <time>2015-10-14T12:52:39Z</time>
      </trkpt>
      <trkpt lat="49.71352" lon="1.46302">
        <ele>144</ele>
        <time>2015-10-14T12:53:02Z</time>
      </trkpt>
      <trkpt lat="49.7137" lon="1.46281">
        <ele>148</ele>
        <time>2015-10-14T12:53:20Z</time>
      </trkpt>
      <trkpt lat="49.7137" lon="1.46281">
        <ele>148</ele>
        <time>2015-10-14T12:53:25Z</time>
      </trkpt>
      <trkpt lat="49.7137" lon="1.46281">
        <ele>148</ele>
        <time>2015-10-14T12:53:26Z</time>
      </trkpt>
      <trkpt lat="49.71382" lon="1.46261">
        <ele>153</ele>
        <time>2015-10-14T12:53:44Z</time>
      </trkpt>
      <trkpt lat="49.71387" lon="1.4625">
        <ele>151</ele>
        <time>2015-10-14T12:53:52Z</time>
      </trkpt>
      <trkpt lat="49.7139" lon="1.46239">
        <ele>145</ele>
        <time>2015-10-14T12:54:07Z</time>
      </trkpt>
      <trkpt lat="49.71397" lon="1.46225">
        <ele>147</ele>
        <time>2015-10-14T12:54:17Z</time>
      </trkpt>
      <trkpt lat="49.71413" lon="1.46205">
        <ele>148</ele>
        <time>2015-10-14T12:54:31Z</time>
      </trkpt>
      <trkpt lat="49.71423" lon="1.46188">
        <ele>150</ele>
        <time>2015-10-14T12:54:43Z</time>
      </trkpt>
      <trkpt lat="49.71433" lon="1.46171">
        <ele>146</ele>
        <time>2015-10-14T12:54:58Z</time>
      </trkpt>
      <trkpt lat="49.71444" lon="1.46149">
        <ele>148</ele>
        <time>2015-10-14T12:55:12Z</time>
      </trkpt>
      <trkpt lat="49.71452" lon="1.46135">
        <ele>149</ele>
        <time>2015-10-14T12:55:22Z</time>
      </trkpt>
      <trkpt lat="49.71464" lon="1.46111">
        <ele>151</ele>
        <time>2015-10-14T12:55:40Z</time>
      </trkpt>
      <trkpt lat="49.71479" lon="1.46088">
        <ele>151</ele>
        <time>2015-10-14T12:55:56Z</time>
      </trkpt>
      <trkpt lat="49.71492" lon="1.46066">
        <ele>156</ele>
        <time>2015-10-14T12:56:12Z</time>
      </trkpt>
      <trkpt lat="49.71498" lon="1.46046">
        <ele>153</ele>
        <time>2015-10-14T12:56:28Z</time>
      </trkpt>
      <trkpt lat="49.71506" lon="1.46021">
        <ele>154</ele>
        <time>2015-10-14T12:56:46Z</time>
      </trkpt>
      <trkpt lat="49.71518" lon="1.45997">
        <ele>154</ele>
        <time>2015-10-14T12:57:03Z</time>
      </trkpt>
      <trkpt lat="49.71527" lon="1.45978">
        <ele>150</ele>
        <time>2015-10-14T12:57:19Z</time>
      </trkpt>
      <trkpt lat="49.71533" lon="1.45954">
        <ele>143</ele>
        <time>2015-10-14T12:57:36Z</time>
      </trkpt>
      <trkpt lat="49.71533" lon="1.45954">
        <ele>143</ele>
        <time>2015-10-14T12:57:44Z</time>
      </trkpt>
      <trkpt lat="49.71541" lon="1.45935">
        <ele>143</ele>
        <time>2015-10-14T12:57:52Z</time>
      </trkpt>
      <trkpt lat="49.71555" lon="1.45908">
        <ele>148</ele>
        <time>2015-10-14T12:58:10Z</time>
      </trkpt>
      <trkpt lat="49.71562" lon="1.45891">
        <ele>149</ele>
        <time>2015-10-14T12:58:21Z</time>
      </trkpt>
      <trkpt lat="49.71572" lon="1.45869">
        <ele>151</ele>
        <time>2015-10-14T12:58:37Z</time>
      </trkpt>
      <trkpt lat="49.71583" lon="1.45854">
        <ele>152</ele>
        <time>2015-10-14T12:58:49Z</time>
      </trkpt>
      <trkpt lat="49.71592" lon="1.45825">
        <ele>142</ele>
        <time>2015-10-14T12:59:23Z</time>
      </trkpt>
      <trkpt lat="49.71606" lon="1.45799">
        <ele>145</ele>
        <time>2015-10-14T12:59:41Z</time>
      </trkpt>
      <trkpt lat="49.71618" lon="1.45775">
        <ele>148</ele>
        <time>2015-10-14T12:59:59Z</time>
      </trkpt>
      <trkpt lat="49.7162" lon="1.45756">
        <ele>140</ele>
        <time>2015-10-14T13:00:13Z</time>
      </trkpt>
      <trkpt lat="49.71643" lon="1.45724">
        <ele>142</ele>
        <time>2015-10-14T13:00:40Z</time>
      </trkpt>
      <trkpt lat="49.71649" lon="1.45711">
        <ele>144</ele>
        <time>2015-10-14T13:00:49Z</time>
      </trkpt>
      <trkpt lat="49.71663" lon="1.457">
        <ele>148</ele>
        <time>2015-10-14T13:01:03Z</time>
      </trkpt>
      <trkpt lat="49.7167" lon="1.4569">
        <ele>148</ele>
        <time>2015-10-14T13:01:14Z</time>
      </trkpt>
      <trkpt lat="49.71675" lon="1.45671">
        <ele>148</ele>
        <time>2015-10-14T13:01:30Z</time>
      </trkpt>
      <trkpt lat="49.71675" lon="1.45671">
        <ele>148</ele>
        <time>2015-10-14T13:03:44Z</time>
      </trkpt>
      <trkpt lat="49.71693" lon="1.4564">
        <ele>144</ele>
        <time>2015-10-14T13:03:56Z</time>
      </trkpt>
      <trkpt lat="49.7171" lon="1.45622">
        <ele>146</ele>
        <time>2015-10-14T13:04:12Z</time>
      </trkpt>
      <trkpt lat="49.71727" lon="1.45604">
        <ele>148</ele>
        <time>2015-10-14T13:04:30Z</time>
      </trkpt>
      <trkpt lat="49.71746" lon="1.45582">
        <ele>148</ele>
        <time>2015-10-14T13:04:52Z</time>
      </trkpt>
      <trkpt lat="49.71763" lon="1.45562">
        <ele>147</ele>
        <time>2015-10-14T13:05:10Z</time>
      </trkpt>
      <trkpt lat="49.71779" lon="1.45546">
        <ele>145</ele>
        <time>2015-10-14T13:05:24Z</time>
      </trkpt>
      <trkpt lat="49.71788" lon="1.45535">
        <ele>140</ele>
        <time>2015-10-14T13:05:34Z</time>
      </trkpt>
      <trkpt lat="49.71814" lon="1.45509">
        <ele>139</ele>
        <time>2015-10-14T13:06:02Z</time>
      </trkpt>
      <trkpt lat="49.71828" lon="1.45494">
        <ele>141</ele>
        <time>2015-10-14T13:06:17Z</time>
      </trkpt>
      <trkpt lat="49.71853" lon="1.45465">
        <ele>140</ele>
        <time>2015-10-14T13:06:43Z</time>
      </trkpt>
      <trkpt lat="49.71866" lon="1.45451">
        <ele>143</ele>
        <time>2015-10-14T13:06:57Z</time>
      </trkpt>
      <trkpt lat="49.71895" lon="1.45417">
        <ele>143</ele>
        <time>2015-10-14T13:07:27Z</time>
      </trkpt>
      <trkpt lat="49.71909" lon="1.45396">
        <ele>142</ele>
        <time>2015-10-14T13:07:44Z</time>
      </trkpt>
      <trkpt lat="49.71923" lon="1.45372">
        <ele>138</ele>
        <time>2015-10-14T13:08:02Z</time>
      </trkpt>
      <trkpt lat="49.71959" lon="1.45338">
        <ele>144</ele>
        <time>2015-10-14T13:08:33Z</time>
      </trkpt>
      <trkpt lat="49.71956" lon="1.45323">
        <ele>138</ele>
        <time>2015-10-14T13:08:46Z</time>
      </trkpt>
      <trkpt lat="49.71973" lon="1.45299">
        <ele>138</ele>
        <time>2015-10-14T13:09:02Z</time>
      </trkpt>
      <trkpt lat="49.71992" lon="1.45268">
        <ele>137</ele>
        <time>2015-10-14T13:09:26Z</time>
      </trkpt>
      <trkpt lat="49.72009" lon="1.45241">
        <ele>139</ele>
        <time>2015-10-14T13:09:45Z</time>
      </trkpt>
      <trkpt lat="49.72027" lon="1.45215">
        <ele>141</ele>
        <time>2015-10-14T13:10:02Z</time>
      </trkpt>
      <trkpt lat="49.72033" lon="1.45199">
        <ele>135</ele>
        <time>2015-10-14T13:10:16Z</time>
      </trkpt>
      <trkpt lat="49.72045" lon="1.45172">
        <ele>135</ele>
        <time>2015-10-14T13:10:37Z</time>
      </trkpt>
      <trkpt lat="49.7206" lon="1.45143">
        <ele>140</ele>
        <time>2015-10-14T13:10:57Z</time>
      </trkpt>
      <trkpt lat="49.72063" lon="1.45123">
        <ele>138</ele>
        <time>2015-10-14T13:11:12Z</time>
      </trkpt>
      <trkpt lat="49.72078" lon="1.45108">
        <ele>137</ele>
        <time>2015-10-14T13:11:22Z</time>
      </trkpt>
      <trkpt lat="49.72087" lon="1.45088">
        <ele>137</ele>
        <time>2015-10-14T13:11:33Z</time>
      </trkpt>
      <trkpt lat="49.72095" lon="1.45069">
        <ele>133</ele>
        <time>2015-10-14T13:11:46Z</time>
      </trkpt>
      <trkpt lat="49.72102" lon="1.45039">
        <ele>127</ele>
        <time>2015-10-14T13:12:03Z</time>
      </trkpt>
      <trkpt lat="49.72106" lon="1.45027">
        <ele>129</ele>
        <time>2015-10-14T13:12:11Z</time>
      </trkpt>
      <trkpt lat="49.7211" lon="1.45013">
        <ele>129</ele>
        <time>2015-10-14T13:12:21Z</time>
      </trkpt>
      <trkpt lat="49.72121" lon="1.44983">
        <ele>130</ele>
        <time>2015-10-14T13:12:38Z</time>
      </trkpt>
      <trkpt lat="49.7213" lon="1.4497">
        <ele>131</ele>
        <time>2015-10-14T13:12:46Z</time>
      </trkpt>
      <trkpt lat="49.72137" lon="1.44957">
        <ele>134</ele>
        <time>2015-10-14T13:12:54Z</time>
      </trkpt>
      <trkpt lat="49.72137" lon="1.44929">
        <ele>136</ele>
        <time>2015-10-14T13:13:09Z</time>
      </trkpt>
      <trkpt lat="49.72143" lon="1.44905">
        <ele>135</ele>
        <time>2015-10-14T13:13:23Z</time>
      </trkpt>
      <trkpt lat="49.72164" lon="1.4488">
        <ele>136</ele>
        <time>2015-10-14T13:13:39Z</time>
      </trkpt>
      <trkpt lat="49.72154" lon="1.44865">
        <ele>135</ele>
        <time>2015-10-14T13:13:49Z</time>
      </trkpt>
      <trkpt lat="49.72152" lon="1.44848">
        <ele>134</ele>
        <time>2015-10-14T13:13:58Z</time>
      </trkpt>
      <trkpt lat="49.72152" lon="1.44848">
        <ele>134</ele>
        <time>2015-10-14T13:14:04Z</time>
      </trkpt>
      <trkpt lat="49.72161" lon="1.44834">
        <ele>136</ele>
        <time>2015-10-14T13:14:06Z</time>
      </trkpt>
      <trkpt lat="49.72178" lon="1.44818">
        <ele>136</ele>
        <time>2015-10-14T13:14:16Z</time>
      </trkpt>
      <trkpt lat="49.7217" lon="1.44805">
        <ele>131</ele>
        <time>2015-10-14T13:14:23Z</time>
      </trkpt>
      <trkpt lat="49.72174" lon="1.4479">
        <ele>133</ele>
        <time>2015-10-14T13:14:31Z</time>
      </trkpt>
      <trkpt lat="49.72174" lon="1.4479">
        <ele>133</ele>
        <time>2015-10-14T13:14:36Z</time>
      </trkpt>
      <trkpt lat="49.72172" lon="1.44772">
        <ele>130</ele>
        <time>2015-10-14T13:14:42Z</time>
      </trkpt>
      <trkpt lat="49.7218" lon="1.44756">
        <ele>128</ele>
        <time>2015-10-14T13:14:52Z</time>
      </trkpt>
      <trkpt lat="49.72185" lon="1.44735">
        <ele>132</ele>
        <time>2015-10-14T13:15:03Z</time>
      </trkpt>
      <trkpt lat="49.72195" lon="1.44719">
        <ele>134</ele>
        <time>2015-10-14T13:15:12Z</time>
      </trkpt>
      <trkpt lat="49.72198" lon="1.44702">
        <ele>129</ele>
        <time>2015-10-14T13:15:25Z</time>
      </trkpt>
      <trkpt lat="49.72211" lon="1.44674">
        <ele>134</ele>
        <time>2015-10-14T13:15:37Z</time>
      </trkpt>
      <trkpt lat="49.72207" lon="1.44656">
        <ele>129</ele>
        <time>2015-10-14T13:15:52Z</time>
      </trkpt>
      <trkpt lat="49.72215" lon="1.44634">
        <ele>135</ele>
        <time>2015-10-14T13:16:01Z</time>
      </trkpt>
      <trkpt lat="49.72231" lon="1.44622">
        <ele>139</ele>
        <time>2015-10-14T13:16:09Z</time>
      </trkpt>
      <trkpt lat="49.72227" lon="1.44599">
        <ele>134</ele>
        <time>2015-10-14T13:16:24Z</time>
      </trkpt>
      <trkpt lat="49.72227" lon="1.44575">
        <ele>130</ele>
        <time>2015-10-14T13:16:38Z</time>
      </trkpt>
      <trkpt lat="49.72236" lon="1.44544">
        <ele>135</ele>
        <time>2015-10-14T13:16:52Z</time>
      </trkpt>
      <trkpt lat="49.72245" lon="1.4454">
        <ele>133</ele>
        <time>2015-10-14T13:17:00Z</time>
      </trkpt>
      <trkpt lat="49.72252" lon="1.44518">
        <ele>133</ele>
        <time>2015-10-14T13:17:13Z</time>
      </trkpt>
      <trkpt lat="49.7225" lon="1.44494">
        <ele>131</ele>
        <time>2015-10-14T13:17:27Z</time>
      </trkpt>
      <trkpt lat="49.72255" lon="1.44472">
        <ele>131</ele>
        <time>2015-10-14T13:17:41Z</time>
      </trkpt>
      <trkpt lat="49.72262" lon="1.44454">
        <ele>134</ele>
        <time>2015-10-14T13:17:54Z</time>
      </trkpt>
      <trkpt lat="49.7227" lon="1.44435">
        <ele>130</ele>
        <time>2015-10-14T13:18:09Z</time>
      </trkpt>
      <trkpt lat="49.72275" lon="1.44401">
        <ele>133</ele>
        <time>2015-10-14T13:18:25Z</time>
      </trkpt>
      <trkpt lat="49.72289" lon="1.44386">
        <ele>135</ele>
        <time>2015-10-14T13:18:38Z</time>
      </trkpt>
      <trkpt lat="49.72293" lon="1.44361">
        <ele>137</ele>
        <time>2015-10-14T13:18:50Z</time>
      </trkpt>
      <trkpt lat="49.72293" lon="1.44334">
        <ele>131</ele>
        <time>2015-10-14T13:19:06Z</time>
      </trkpt>
      <trkpt lat="49.72288" lon="1.44331">
        <ele>130</ele>
        <time>2015-10-14T13:19:09Z</time>
      </trkpt>
      <trkpt lat="49.72293" lon="1.44334">
        <ele>131</ele>
        <time>2015-10-14T13:19:16Z</time>
      </trkpt>
      <trkpt lat="49.72299" lon="1.44315">
        <ele>132</ele>
        <time>2015-10-14T13:20:20Z</time>
      </trkpt>
      <trkpt lat="49.72302" lon="1.44295">
        <ele>133</ele>
        <time>2015-10-14T13:20:29Z</time>
      </trkpt>
      <trkpt lat="49.72314" lon="1.44265">
        <ele>134</ele>
        <time>2015-10-14T13:20:49Z</time>
      </trkpt>
      <trkpt lat="49.72319" lon="1.44245">
        <ele>135</ele>
        <time>2015-10-14T13:20:58Z</time>
      </trkpt>
      <trkpt lat="49.72324" lon="1.44233">
        <ele>136</ele>
        <time>2015-10-14T13:21:24Z</time>
      </trkpt>
      <trkpt lat="49.72332" lon="1.44191">
        <ele>136</ele>
        <time>2015-10-14T13:21:31Z</time>
      </trkpt>
      <trkpt lat="49.7234" lon="1.44161">
        <ele>133</ele>
        <time>2015-10-14T13:21:52Z</time>
      </trkpt>
      <trkpt lat="49.72353" lon="1.44136">
        <ele>136</ele>
        <time>2015-10-14T13:22:08Z</time>
      </trkpt>
      <trkpt lat="49.72357" lon="1.44107">
        <ele>134</ele>
        <time>2015-10-14T13:22:29Z</time>
      </trkpt>
      <trkpt lat="49.72366" lon="1.44075">
        <ele>134</ele>
        <time>2015-10-14T13:22:48Z</time>
      </trkpt>
      <trkpt lat="49.72379" lon="1.44046">
        <ele>136</ele>
        <time>2015-10-14T13:23:07Z</time>
      </trkpt>
      <trkpt lat="49.72392" lon="1.44024">
        <ele>139</ele>
        <time>2015-10-14T13:23:20Z</time>
      </trkpt>
      <trkpt lat="49.72394" lon="1.44008">
        <ele>138</ele>
        <time>2015-10-14T13:23:31Z</time>
      </trkpt>
      <trkpt lat="49.72402" lon="1.43989">
        <ele>135</ele>
        <time>2015-10-14T13:23:47Z</time>
      </trkpt>
      <trkpt lat="49.72414" lon="1.43967">
        <ele>131</ele>
        <time>2015-10-14T13:24:06Z</time>
      </trkpt>
      <trkpt lat="49.72413" lon="1.43939">
        <ele>134</ele>
        <time>2015-10-14T13:24:14Z</time>
      </trkpt>
      <trkpt lat="49.72435" lon="1.43941">
        <ele>132</ele>
        <time>2015-10-14T13:24:32Z</time>
      </trkpt>
      <trkpt lat="49.72443" lon="1.43923">
        <ele>132</ele>
        <time>2015-10-14T13:24:42Z</time>
      </trkpt>
      <trkpt lat="49.72456" lon="1.43889">
        <ele>140</ele>
        <time>2015-10-14T13:24:55Z</time>
      </trkpt>
      <trkpt lat="49.72462" lon="1.43878">
        <ele>142</ele>
        <time>2015-10-14T13:25:03Z</time>
      </trkpt>
      <trkpt lat="49.72468" lon="1.43866">
        <ele>137</ele>
        <time>2015-10-14T13:25:15Z</time>
      </trkpt>
      <trkpt lat="49.72468" lon="1.43866">
        <ele>137</ele>
        <time>2015-10-14T13:25:22Z</time>
      </trkpt>
      <trkpt lat="49.72473" lon="1.43856">
        <ele>135</ele>
        <time>2015-10-14T13:25:28Z</time>
      </trkpt>
      <trkpt lat="49.72483" lon="1.43846">
        <ele>128</ele>
        <time>2015-10-14T13:25:44Z</time>
      </trkpt>
      <trkpt lat="49.72501" lon="1.43829">
        <ele>123</ele>
        <time>2015-10-14T13:26:03Z</time>
      </trkpt>
      <trkpt lat="49.72514" lon="1.43811">
        <ele>126</ele>
        <time>2015-10-14T13:26:14Z</time>
      </trkpt>
      <trkpt lat="49.72531" lon="1.43798">
        <ele>127</ele>
        <time>2015-10-14T13:26:26Z</time>
      </trkpt>
      <trkpt lat="49.7255" lon="1.43783">
        <ele>130</ele>
        <time>2015-10-14T13:26:40Z</time>
      </trkpt>
      <trkpt lat="49.72565" lon="1.43769">
        <ele>133</ele>
        <time>2015-10-14T13:26:53Z</time>
      </trkpt>
      <trkpt lat="49.72565" lon="1.43769">
        <ele>133</ele>
        <time>2015-10-14T13:27:01Z</time>
      </trkpt>
      <trkpt lat="49.72565" lon="1.43769">
        <ele>133</ele>
        <time>2015-10-14T13:27:02Z</time>
      </trkpt>
      <trkpt lat="49.72601" lon="1.43739">
        <ele>128</ele>
        <time>2015-10-14T13:32:42Z</time>
      </trkpt>
      <trkpt lat="49.72615" lon="1.43731">
        <ele>128</ele>
        <time>2015-10-14T13:32:56Z</time>
      </trkpt>
      <trkpt lat="49.72633" lon="1.43722">
        <ele>127</ele>
        <time>2015-10-14T13:33:10Z</time>
      </trkpt>
      <trkpt lat="49.72653" lon="1.43722">
        <ele>130</ele>
        <time>2015-10-14T13:33:24Z</time>
      </trkpt>
      <trkpt lat="49.7267" lon="1.4371">
        <ele>127</ele>
        <time>2015-10-14T13:33:41Z</time>
      </trkpt>
      <trkpt lat="49.72682" lon="1.43707">
        <ele>125</ele>
        <time>2015-10-14T13:33:52Z</time>
      </trkpt>
      <trkpt lat="49.72698" lon="1.43703">
        <ele>123</ele>
        <time>2015-10-14T13:34:06Z</time>
      </trkpt>
      <trkpt lat="49.72708" lon="1.43702">
        <ele>122</ele>
        <time>2015-10-14T13:34:14Z</time>
      </trkpt>
      <trkpt lat="49.7273" lon="1.43694">
        <ele>127</ele>
        <time>2015-10-14T13:34:31Z</time>
      </trkpt>
      <trkpt lat="49.72745" lon="1.43699">
        <ele>128</ele>
        <time>2015-10-14T13:34:43Z</time>
      </trkpt>
      <trkpt lat="49.72762" lon="1.437">
        <ele>131</ele>
        <time>2015-10-14T13:34:56Z</time>
      </trkpt>
      <trkpt lat="49.72762" lon="1.437">
        <ele>131</ele>
        <time>2015-10-14T13:35:05Z</time>
      </trkpt>
      <trkpt lat="49.72762" lon="1.437">
        <ele>131</ele>
        <time>2015-10-14T13:35:06Z</time>
      </trkpt>
      <trkpt lat="49.72802" lon="1.43698">
        <ele>129</ele>
        <time>2015-10-14T13:35:51Z</time>
      </trkpt>
      <trkpt lat="49.7282" lon="1.43703">
        <ele>132</ele>
        <time>2015-10-14T13:36:07Z</time>
      </trkpt>
      <trkpt lat="49.72837" lon="1.4371">
        <ele>134</ele>
        <time>2015-10-14T13:36:22Z</time>
      </trkpt>
      <trkpt lat="49.72863" lon="1.43708">
        <ele>129</ele>
        <time>2015-10-14T13:36:42Z</time>
      </trkpt>
      <trkpt lat="49.72884" lon="1.43712">
        <ele>128</ele>
        <time>2015-10-14T13:37:02Z</time>
      </trkpt>
      <trkpt lat="49.72904" lon="1.43714">
        <ele>130</ele>
        <time>2015-10-14T13:37:19Z</time>
      </trkpt>
      <trkpt lat="49.72928" lon="1.43717">
        <ele>127</ele>
        <time>2015-10-14T13:37:41Z</time>
      </trkpt>
      <trkpt lat="49.72944" lon="1.43714">
        <ele>131</ele>
        <time>2015-10-14T13:37:55Z</time>
      </trkpt>
      <trkpt lat="49.72966" lon="1.43714">
        <ele>130</ele>
        <time>2015-10-14T13:38:12Z</time>
      </trkpt>
      <trkpt lat="49.72974" lon="1.43717">
        <ele>127</ele>
        <time>2015-10-14T13:38:19Z</time>
      </trkpt>
      <trkpt lat="49.7299" lon="1.43722">
        <ele>128</ele>
        <time>2015-10-14T13:38:33Z</time>
      </trkpt>
      <trkpt lat="49.7299" lon="1.43722">
        <ele>128</ele>
        <time>2015-10-14T13:38:40Z</time>
      </trkpt>
      <trkpt lat="49.73003" lon="1.43727">
        <ele>129</ele>
        <time>2015-10-14T13:38:45Z</time>
      </trkpt>
      <trkpt lat="49.73021" lon="1.43722">
        <ele>127</ele>
        <time>2015-10-14T13:38:57Z</time>
      </trkpt>
      <trkpt lat="49.73032" lon="1.4372">
        <ele>126</ele>
        <time>2015-10-14T13:39:09Z</time>
      </trkpt>
      <trkpt lat="49.73049" lon="1.43729">
        <ele>129</ele>
        <time>2015-10-14T13:39:27Z</time>
      </trkpt>
      <trkpt lat="49.7306" lon="1.43732">
        <ele>129</ele>
        <time>2015-10-14T13:39:32Z</time>
      </trkpt>
      <trkpt lat="49.73056" lon="1.43733">
        <ele>127</ele>
        <time>2015-10-14T13:39:39Z</time>
      </trkpt>
      <trkpt lat="49.73078" lon="1.43738">
        <ele>126</ele>
        <time>2015-10-14T13:39:58Z</time>
      </trkpt>
      <trkpt lat="49.73093" lon="1.43739">
        <ele>128</ele>
        <time>2015-10-14T13:40:08Z</time>
      </trkpt>
      <trkpt lat="49.73109" lon="1.43731">
        <ele>128</ele>
        <time>2015-10-14T13:40:19Z</time>
      </trkpt>
      <trkpt lat="49.73118" lon="1.4373">
        <ele>127</ele>
        <time>2015-10-14T13:40:30Z</time>
      </trkpt>
      <trkpt lat="49.73141" lon="1.43724">
        <ele>128</ele>
        <time>2015-10-14T13:40:48Z</time>
      </trkpt>
      <trkpt lat="49.73163" lon="1.43717">
        <ele>131</ele>
        <time>2015-10-14T13:41:06Z</time>
      </trkpt>
      <trkpt lat="49.73183" lon="1.43708">
        <ele>131</ele>
        <time>2015-10-14T13:41:21Z</time>
      </trkpt>
      <trkpt lat="49.73193" lon="1.43711">
        <ele>127</ele>
        <time>2015-10-14T13:41:31Z</time>
      </trkpt>
      <trkpt lat="49.73209" lon="1.437">
        <ele>128</ele>
        <time>2015-10-14T13:41:44Z</time>
      </trkpt>
      <trkpt lat="49.73217" lon="1.43692">
        <ele>129</ele>
        <time>2015-10-14T13:41:52Z</time>
      </trkpt>
      <trkpt lat="49.73233" lon="1.43681">
        <ele>131</ele>
        <time>2015-10-14T13:42:06Z</time>
      </trkpt>
      <trkpt lat="49.7325" lon="1.4367">
        <ele>130</ele>
        <time>2015-10-14T13:42:21Z</time>
      </trkpt>
      <trkpt lat="49.73274" lon="1.4366">
        <ele>132</ele>
        <time>2015-10-14T13:42:35Z</time>
      </trkpt>
      <trkpt lat="49.73277" lon="1.43655">
        <ele>134</ele>
        <time>2015-10-14T13:42:39Z</time>
      </trkpt>
      <trkpt lat="49.73288" lon="1.43646">
        <ele>135</ele>
        <time>2015-10-14T13:42:50Z</time>
      </trkpt>
      <trkpt lat="49.73291" lon="1.4364">
        <ele>138</ele>
        <time>2015-10-14T13:42:52Z</time>
      </trkpt>
      <trkpt lat="49.73297" lon="1.43634">
        <ele>132</ele>
        <time>2015-10-14T13:43:02Z</time>
      </trkpt>
      <trkpt lat="49.73306" lon="1.43624">
        <ele>131</ele>
        <time>2015-10-14T13:43:12Z</time>
      </trkpt>
      <trkpt lat="49.73323" lon="1.43604">
        <ele>132</ele>
        <time>2015-10-14T13:43:31Z</time>
      </trkpt>
      <trkpt lat="49.73341" lon="1.43587">
        <ele>134</ele>
        <time>2015-10-14T13:43:47Z</time>
      </trkpt>
      <trkpt lat="49.73349" lon="1.43578">
        <ele>130</ele>
        <time>2015-10-14T13:43:58Z</time>
      </trkpt>
      <trkpt lat="49.73368" lon="1.43556">
        <ele>130</ele>
        <time>2015-10-14T13:44:21Z</time>
      </trkpt>
      <trkpt lat="49.7339" lon="1.43528">
        <ele>131</ele>
        <time>2015-10-14T13:44:41Z</time>
      </trkpt>
      <trkpt lat="49.734" lon="1.4351">
        <ele>130</ele>
        <time>2015-10-14T13:44:55Z</time>
      </trkpt>
      <trkpt lat="49.73411" lon="1.43491">
        <ele>131</ele>
        <time>2015-10-14T13:45:11Z</time>
      </trkpt>
      <trkpt lat="49.73434" lon="1.43477">
        <ele>133</ele>
        <time>2015-10-14T13:45:30Z</time>
      </trkpt>
      <trkpt lat="49.73442" lon="1.43462">
        <ele>135</ele>
        <time>2015-10-14T13:45:44Z</time>
      </trkpt>
      <trkpt lat="49.7346" lon="1.43445">
        <ele>140</ele>
        <time>2015-10-14T13:46:00Z</time>
      </trkpt>
      <trkpt lat="49.73468" lon="1.43428">
        <ele>130</ele>
        <time>2015-10-14T13:46:17Z</time>
      </trkpt>
      <trkpt lat="49.73484" lon="1.43409">
        <ele>128</ele>
        <time>2015-10-14T13:46:37Z</time>
      </trkpt>
      <trkpt lat="49.73495" lon="1.43391">
        <ele>131</ele>
        <time>2015-10-14T13:46:53Z</time>
      </trkpt>
      <trkpt lat="49.73513" lon="1.43379">
        <ele>130</ele>
        <time>2015-10-14T13:47:09Z</time>
      </trkpt>
      <trkpt lat="49.73523" lon="1.43365">
        <ele>128</ele>
        <time>2015-10-14T13:47:25Z</time>
      </trkpt>
      <trkpt lat="49.73547" lon="1.43337">
        <ele>119</ele>
        <time>2015-10-14T13:48:49Z</time>
      </trkpt>
      <trkpt lat="49.73564" lon="1.43299">
        <ele>126</ele>
        <time>2015-10-14T13:49:30Z</time>
      </trkpt>
      <trkpt lat="49.73575" lon="1.4329">
        <ele>125</ele>
        <time>2015-10-14T13:49:41Z</time>
      </trkpt>
      <trkpt lat="49.73588" lon="1.43274">
        <ele>122</ele>
        <time>2015-10-14T13:49:57Z</time>
      </trkpt>
      <trkpt lat="49.73604" lon="1.43259">
        <ele>124</ele>
        <time>2015-10-14T13:50:11Z</time>
      </trkpt>
      <trkpt lat="49.73621" lon="1.43228">
        <ele>130</ele>
        <time>2015-10-14T13:50:30Z</time>
      </trkpt>
      <trkpt lat="49.73634" lon="1.43213">
        <ele>131</ele>
        <time>2015-10-14T13:50:44Z</time>
      </trkpt>
      <trkpt lat="49.73647" lon="1.4319">
        <ele>131</ele>
        <time>2015-10-14T13:51:01Z</time>
      </trkpt>
      <trkpt lat="49.73656" lon="1.43169">
        <ele>132</ele>
        <time>2015-10-14T13:51:13Z</time>
      </trkpt>
      <trkpt lat="49.73667" lon="1.43144">
        <ele>131</ele>
        <time>2015-10-14T13:51:30Z</time>
      </trkpt>
      <trkpt lat="49.73676" lon="1.43125">
        <ele>127</ele>
        <time>2015-10-14T13:51:41Z</time>
      </trkpt>
      <trkpt lat="49.73676" lon="1.43122">
        <ele>124</ele>
        <time>2015-10-14T13:51:44Z</time>
      </trkpt>
      <trkpt lat="49.73683" lon="1.43109">
        <ele>125</ele>
        <time>2015-10-14T13:51:59Z</time>
      </trkpt>
      <trkpt lat="49.737" lon="1.43079">
        <ele>125</ele>
        <time>2015-10-14T13:52:17Z</time>
      </trkpt>
      <trkpt lat="49.73707" lon="1.43057">
        <ele>125</ele>
        <time>2015-10-14T13:52:30Z</time>
      </trkpt>
      <trkpt lat="49.73719" lon="1.43031">
        <ele>129</ele>
        <time>2015-10-14T13:52:47Z</time>
      </trkpt>
      <trkpt lat="49.7373" lon="1.43004">
        <ele>121</ele>
        <time>2015-10-14T13:53:06Z</time>
      </trkpt>
      <trkpt lat="49.73738" lon="1.42983">
        <ele>121</ele>
        <time>2015-10-14T13:53:18Z</time>
      </trkpt>
      <trkpt lat="49.73738" lon="1.42983">
        <ele>121</ele>
        <time>2015-10-14T13:53:23Z</time>
      </trkpt>
      <trkpt lat="49.73738" lon="1.42983">
        <ele>121</ele>
        <time>2015-10-14T13:53:24Z</time>
      </trkpt>
      <trkpt lat="49.73746" lon="1.42963">
        <ele>122</ele>
        <time>2015-10-14T13:53:35Z</time>
      </trkpt>
      <trkpt lat="49.73757" lon="1.4294">
        <ele>122</ele>
        <time>2015-10-14T13:53:46Z</time>
      </trkpt>
      <trkpt lat="49.73761" lon="1.42927">
        <ele>125</ele>
        <time>2015-10-14T13:53:57Z</time>
      </trkpt>
      <trkpt lat="49.7377" lon="1.42903">
        <ele>123</ele>
        <time>2015-10-14T13:54:07Z</time>
      </trkpt>
      <trkpt lat="49.7377" lon="1.42903">
        <ele>123</ele>
        <time>2015-10-14T13:54:12Z</time>
      </trkpt>
      <trkpt lat="49.7377" lon="1.42903">
        <ele>123</ele>
        <time>2015-10-14T13:54:13Z</time>
      </trkpt>
      <trkpt lat="49.73776" lon="1.42884">
        <ele>121</ele>
        <time>2015-10-14T13:54:20Z</time>
      </trkpt>
      <trkpt lat="49.73787" lon="1.42861">
        <ele>124</ele>
        <time>2015-10-14T13:54:33Z</time>
      </trkpt>
      <trkpt lat="49.73797" lon="1.42834">
        <ele>128</ele>
        <time>2015-10-14T13:54:46Z</time>
      </trkpt>
      <trkpt lat="49.73802" lon="1.4282">
        <ele>125</ele>
        <time>2015-10-14T13:54:52Z</time>
      </trkpt>
      <trkpt lat="49.7381" lon="1.42802">
        <ele>126</ele>
        <time>2015-10-14T13:55:05Z</time>
      </trkpt>
      <trkpt lat="49.7382" lon="1.4278">
        <ele>128</ele>
        <time>2015-10-14T13:55:20Z</time>
      </trkpt>
      <trkpt lat="49.73833" lon="1.42751">
        <ele>132</ele>
        <time>2015-10-14T13:55:36Z</time>
      </trkpt>
      <trkpt lat="49.73837" lon="1.42743">
        <ele>129</ele>
        <time>2015-10-14T13:55:41Z</time>
      </trkpt>
      <trkpt lat="49.73842" lon="1.42733">
        <ele>129</ele>
        <time>2015-10-14T13:55:51Z</time>
      </trkpt>
      <trkpt lat="49.7385" lon="1.42712">
        <ele>125</ele>
        <time>2015-10-14T13:56:00Z</time>
      </trkpt>
      <trkpt lat="49.7387" lon="1.42691">
        <ele>126</ele>
        <time>2015-10-14T13:56:13Z</time>
      </trkpt>
      <trkpt lat="49.73882" lon="1.42679">
        <ele>126</ele>
        <time>2015-10-14T13:56:21Z</time>
      </trkpt>
      <trkpt lat="49.73889" lon="1.42658">
        <ele>126</ele>
        <time>2015-10-14T13:56:34Z</time>
      </trkpt>
      <trkpt lat="49.73889" lon="1.42658">
        <ele>126</ele>
        <time>2015-10-14T13:56:41Z</time>
      </trkpt>
      <trkpt lat="49.73889" lon="1.42658">
        <ele>126</ele>
        <time>2015-10-14T13:56:42Z</time>
      </trkpt>
      <trkpt lat="49.73897" lon="1.42635">
        <ele>128</ele>
        <time>2015-10-14T13:56:54Z</time>
      </trkpt>
      <trkpt lat="49.73908" lon="1.42615">
        <ele>124</ele>
        <time>2015-10-14T13:57:03Z</time>
      </trkpt>
      <trkpt lat="49.73908" lon="1.42615">
        <ele>124</ele>
        <time>2015-10-14T13:57:08Z</time>
      </trkpt>
      <trkpt lat="49.73908" lon="1.42615">
        <ele>124</ele>
        <time>2015-10-14T13:57:09Z</time>
      </trkpt>
      <trkpt lat="49.73923" lon="1.42595">
        <ele>125</ele>
        <time>2015-10-14T13:57:24Z</time>
      </trkpt>
      <trkpt lat="49.73935" lon="1.42575">
        <ele>118</ele>
        <time>2015-10-14T13:57:34Z</time>
      </trkpt>
      <trkpt lat="49.73954" lon="1.42553">
        <ele>121</ele>
        <time>2015-10-14T13:57:51Z</time>
      </trkpt>
      <trkpt lat="49.73971" lon="1.42526">
        <ele>125</ele>
        <time>2015-10-14T13:58:07Z</time>
      </trkpt>
      <trkpt lat="49.73982" lon="1.42511">
        <ele>124</ele>
        <time>2015-10-14T13:58:19Z</time>
      </trkpt>
      <trkpt lat="49.73993" lon="1.42489">
        <ele>127</ele>
        <time>2015-10-14T13:58:35Z</time>
      </trkpt>
      <trkpt lat="49.74006" lon="1.42474">
        <ele>125</ele>
        <time>2015-10-14T13:58:49Z</time>
      </trkpt>
      <trkpt lat="49.74024" lon="1.42454">
        <ele>127</ele>
        <time>2015-10-14T13:59:04Z</time>
      </trkpt>
      <trkpt lat="49.74035" lon="1.42435">
        <ele>127</ele>
        <time>2015-10-14T13:59:16Z</time>
      </trkpt>
      <trkpt lat="49.74044" lon="1.42415">
        <ele>127</ele>
        <time>2015-10-14T13:59:28Z</time>
      </trkpt>
      <trkpt lat="49.74055" lon="1.42395">
        <ele>131</ele>
        <time>2015-10-14T13:59:40Z</time>
      </trkpt>
      <trkpt lat="49.74066" lon="1.42384">
        <ele>129</ele>
        <time>2015-10-14T13:59:51Z</time>
      </trkpt>
      <trkpt lat="49.74079" lon="1.42365">
        <ele>127</ele>
        <time>2015-10-14T14:00:06Z</time>
      </trkpt>
      <trkpt lat="49.7409" lon="1.42347">
        <ele>130</ele>
        <time>2015-10-14T14:00:19Z</time>
      </trkpt>
      <trkpt lat="49.74104" lon="1.42333">
        <ele>130</ele>
        <time>2015-10-14T14:00:31Z</time>
      </trkpt>
      <trkpt lat="49.74114" lon="1.42326">
        <ele>130</ele>
        <time>2015-10-14T14:00:40Z</time>
      </trkpt>
      <trkpt lat="49.7413" lon="1.42299">
        <ele>128</ele>
        <time>2015-10-14T14:00:59Z</time>
      </trkpt>
      <trkpt lat="49.74141" lon="1.42278">
        <ele>129</ele>
        <time>2015-10-14T14:01:11Z</time>
      </trkpt>
      <trkpt lat="49.74151" lon="1.42264">
        <ele>128</ele>
        <time>2015-10-14T14:01:24Z</time>
      </trkpt>
      <trkpt lat="49.74166" lon="1.42237">
        <ele>131</ele>
        <time>2015-10-14T14:01:41Z</time>
      </trkpt>
      <trkpt lat="49.74177" lon="1.42215">
        <ele>128</ele>
        <time>2015-10-14T14:01:57Z</time>
      </trkpt>
      <trkpt lat="49.74193" lon="1.42194">
        <ele>130</ele>
        <time>2015-10-14T14:02:14Z</time>
      </trkpt>
      <trkpt lat="49.74193" lon="1.42194">
        <ele>130</ele>
        <time>2015-10-14T14:02:22Z</time>
      </trkpt>
      <trkpt lat="49.74202" lon="1.42183">
        <ele>124</ele>
        <time>2015-10-14T14:02:31Z</time>
      </trkpt>
      <trkpt lat="49.74209" lon="1.42167">
        <ele>128</ele>
        <time>2015-10-14T14:02:36Z</time>
      </trkpt>
      <trkpt lat="49.74217" lon="1.42152">
        <ele>125</ele>
        <time>2015-10-14T14:02:45Z</time>
      </trkpt>
      <trkpt lat="49.7423" lon="1.4213">
        <ele>129</ele>
        <time>2015-10-14T14:02:57Z</time>
      </trkpt>
      <trkpt lat="49.74239" lon="1.42115">
        <ele>128</ele>
        <time>2015-10-14T14:03:11Z</time>
      </trkpt>
      <trkpt lat="49.74246" lon="1.42099">
        <ele>127</ele>
        <time>2015-10-14T14:03:20Z</time>
      </trkpt>
      <trkpt lat="49.74257" lon="1.42082">
        <ele>126</ele>
        <time>2015-10-14T14:03:29Z</time>
      </trkpt>
      <trkpt lat="49.7426" lon="1.4207">
        <ele>123</ele>
        <time>2015-10-14T14:03:40Z</time>
      </trkpt>
      <trkpt lat="49.74267" lon="1.42055">
        <ele>118</ele>
        <time>2015-10-14T14:03:46Z</time>
      </trkpt>
      <trkpt lat="49.7427" lon="1.42049">
        <ele>117</ele>
        <time>2015-10-14T14:03:58Z</time>
      </trkpt>
      <trkpt lat="49.74281" lon="1.42036">
        <ele>123</ele>
        <time>2015-10-14T14:04:08Z</time>
      </trkpt>
      <trkpt lat="49.74299" lon="1.41997">
        <ele>125</ele>
        <time>2015-10-14T14:04:24Z</time>
      </trkpt>
      <trkpt lat="49.74317" lon="1.41966">
        <ele>126</ele>
        <time>2015-10-14T14:04:44Z</time>
      </trkpt>
      <trkpt lat="49.74334" lon="1.41932">
        <ele>127</ele>
        <time>2015-10-14T14:05:07Z</time>
      </trkpt>
      <trkpt lat="49.74348" lon="1.41904">
        <ele>133</ele>
        <time>2015-10-14T14:05:25Z</time>
      </trkpt>
      <trkpt lat="49.74361" lon="1.41883">
        <ele>125</ele>
        <time>2015-10-14T14:05:43Z</time>
      </trkpt>
      <trkpt lat="49.74376" lon="1.41858">
        <ele>125</ele>
        <time>2015-10-14T14:06:04Z</time>
      </trkpt>
      <trkpt lat="49.74383" lon="1.41838">
        <ele>127</ele>
        <time>2015-10-14T14:06:11Z</time>
      </trkpt>
      <trkpt lat="49.74389" lon="1.41826">
        <ele>128</ele>
        <time>2015-10-14T14:06:18Z</time>
      </trkpt>
      <trkpt lat="49.74398" lon="1.41811">
        <ele>132</ele>
        <time>2015-10-14T14:06:27Z</time>
      </trkpt>
      <trkpt lat="49.74402" lon="1.41807">
        <ele>130</ele>
        <time>2015-10-14T14:06:30Z</time>
      </trkpt>
      <trkpt lat="49.74403" lon="1.41803">
        <ele>131</ele>
        <time>2015-10-14T14:06:37Z</time>
      </trkpt>
      <trkpt lat="49.74418" lon="1.41778">
        <ele>132</ele>
        <time>2015-10-14T14:06:52Z</time>
      </trkpt>
      <trkpt lat="49.74418" lon="1.41778">
        <ele>132</ele>
        <time>2015-10-14T14:06:59Z</time>
      </trkpt>
      <trkpt lat="49.74418" lon="1.41778">
        <ele>132</ele>
        <time>2015-10-14T14:07:00Z</time>
      </trkpt>
      <trkpt lat="49.74431" lon="1.41762">
        <ele>125</ele>
        <time>2015-10-14T14:07:09Z</time>
      </trkpt>
      <trkpt lat="49.7444" lon="1.41751">
        <ele>124</ele>
        <time>2015-10-14T14:07:18Z</time>
      </trkpt>
      <trkpt lat="49.74451" lon="1.4173">
        <ele>125</ele>
        <time>2015-10-14T14:07:29Z</time>
      </trkpt>
      <trkpt lat="49.74462" lon="1.41712">
        <ele>126</ele>
        <time>2015-10-14T14:07:38Z</time>
      </trkpt>
      <trkpt lat="49.74474" lon="1.41691">
        <ele>129</ele>
        <time>2015-10-14T14:07:55Z</time>
      </trkpt>
      <trkpt lat="49.74488" lon="1.41666">
        <ele>131</ele>
        <time>2015-10-14T14:08:09Z</time>
      </trkpt>
      <trkpt lat="49.74502" lon="1.41649">
        <ele>127</ele>
        <time>2015-10-14T14:08:20Z</time>
      </trkpt>
      <trkpt lat="49.74512" lon="1.41633">
        <ele>128</ele>
        <time>2015-10-14T14:08:33Z</time>
      </trkpt>
      <trkpt lat="49.74519" lon="1.41626">
        <ele>128</ele>
        <time>2015-10-14T14:08:41Z</time>
      </trkpt>
      <trkpt lat="49.74521" lon="1.41621">
        <ele>129</ele>
        <time>2015-10-14T14:08:51Z</time>
      </trkpt>
      <trkpt lat="49.74533" lon="1.416">
        <ele>130</ele>
        <time>2015-10-14T14:09:04Z</time>
      </trkpt>
      <trkpt lat="49.74538" lon="1.41592">
        <ele>130</ele>
        <time>2015-10-14T14:09:11Z</time>
      </trkpt>
      <trkpt lat="49.74543" lon="1.41581">
        <ele>126</ele>
        <time>2015-10-14T14:09:19Z</time>
      </trkpt>
      <trkpt lat="49.74543" lon="1.41577">
        <ele>125</ele>
        <time>2015-10-14T14:09:29Z</time>
      </trkpt>
      <trkpt lat="49.74553" lon="1.41561">
        <ele>129</ele>
        <time>2015-10-14T14:19:25Z</time>
      </trkpt>
      <trkpt lat="49.74561" lon="1.41547">
        <ele>127</ele>
        <time>2015-10-14T14:19:34Z</time>
      </trkpt>
      <trkpt lat="49.74563" lon="1.41541">
        <ele>127</ele>
        <time>2015-10-14T14:19:41Z</time>
      </trkpt>
      <trkpt lat="49.74569" lon="1.41538">
        <ele>128</ele>
        <time>2015-10-14T14:19:55Z</time>
      </trkpt>
      <trkpt lat="49.74575" lon="1.41526">
        <ele>124</ele>
        <time>2015-10-14T14:20:02Z</time>
      </trkpt>
      <trkpt lat="49.74591" lon="1.41512">
        <ele>130</ele>
        <time>2015-10-14T14:20:17Z</time>
      </trkpt>
      <trkpt lat="49.74608" lon="1.41492">
        <ele>134</ele>
        <time>2015-10-14T14:20:35Z</time>
      </trkpt>
      <trkpt lat="49.74623" lon="1.41476">
        <ele>135</ele>
        <time>2015-10-14T14:20:48Z</time>
      </trkpt>
      <trkpt lat="49.7464" lon="1.41457">
        <ele>139</ele>
        <time>2015-10-14T14:21:02Z</time>
      </trkpt>
      <trkpt lat="49.7465" lon="1.4144">
        <ele>138</ele>
        <time>2015-10-14T14:21:11Z</time>
      </trkpt>
      <trkpt lat="49.74658" lon="1.41427">
        <ele>134</ele>
        <time>2015-10-14T14:21:21Z</time>
      </trkpt>
      <trkpt lat="49.74664" lon="1.41422">
        <ele>134</ele>
        <time>2015-10-14T14:21:24Z</time>
      </trkpt>
      <trkpt lat="49.74668" lon="1.41412">
        <ele>133</ele>
        <time>2015-10-14T14:21:37Z</time>
      </trkpt>
      <trkpt lat="49.74676" lon="1.41397">
        <ele>132</ele>
        <time>2015-10-14T14:21:46Z</time>
      </trkpt>
      <trkpt lat="49.74685" lon="1.41386">
        <ele>131</ele>
        <time>2015-10-14T14:21:57Z</time>
      </trkpt>
      <trkpt lat="49.74696" lon="1.41367">
        <ele>134</ele>
        <time>2015-10-14T14:22:06Z</time>
      </trkpt>
      <trkpt lat="49.74704" lon="1.41353">
        <ele>131</ele>
        <time>2015-10-14T14:22:14Z</time>
      </trkpt>
      <trkpt lat="49.74716" lon="1.41333">
        <ele>131</ele>
        <time>2015-10-14T14:22:27Z</time>
      </trkpt>
      <trkpt lat="49.74727" lon="1.41318">
        <ele>128</ele>
        <time>2015-10-14T14:22:38Z</time>
      </trkpt>
      <trkpt lat="49.74731" lon="1.41314">
        <ele>130</ele>
        <time>2015-10-14T14:22:45Z</time>
      </trkpt>
      <trkpt lat="49.74736" lon="1.41306">
        <ele>129</ele>
        <time>2015-10-14T14:23:01Z</time>
      </trkpt>
      <trkpt lat="49.74749" lon="1.41291">
        <ele>130</ele>
        <time>2015-10-14T14:23:09Z</time>
      </trkpt>
      <trkpt lat="49.74757" lon="1.41282">
        <ele>133</ele>
        <time>2015-10-14T14:23:16Z</time>
      </trkpt>
      <trkpt lat="49.74764" lon="1.41277">
        <ele>132</ele>
        <time>2015-10-14T14:23:24Z</time>
      </trkpt>
      <trkpt lat="49.74772" lon="1.41264">
        <ele>130</ele>
        <time>2015-10-14T14:23:36Z</time>
      </trkpt>
      <trkpt lat="49.74781" lon="1.41249">
        <ele>130</ele>
        <time>2015-10-14T14:23:44Z</time>
      </trkpt>
      <trkpt lat="49.74793" lon="1.41229">
        <ele>133</ele>
        <time>2015-10-14T14:23:57Z</time>
      </trkpt>
      <trkpt lat="49.74804" lon="1.41215">
        <ele>130</ele>
        <time>2015-10-14T14:24:06Z</time>
      </trkpt>
      <trkpt lat="49.74822" lon="1.4119">
        <ele>129</ele>
        <time>2015-10-14T14:24:28Z</time>
      </trkpt>
      <trkpt lat="49.74839" lon="1.41171">
        <ele>125</ele>
        <time>2015-10-14T14:24:44Z</time>
      </trkpt>
      <trkpt lat="49.74847" lon="1.41156">
        <ele>126</ele>
        <time>2015-10-14T14:24:52Z</time>
      </trkpt>
      <trkpt lat="49.74854" lon="1.4115">
        <ele>127</ele>
        <time>2015-10-14T14:25:04Z</time>
      </trkpt>
      <trkpt lat="49.74864" lon="1.41134">
        <ele>126</ele>
        <time>2015-10-14T14:25:11Z</time>
      </trkpt>
      <trkpt lat="49.74874" lon="1.41116">
        <ele>129</ele>
        <time>2015-10-14T14:25:21Z</time>
      </trkpt>
      <trkpt lat="49.74878" lon="1.41111">
        <ele>128</ele>
        <time>2015-10-14T14:25:27Z</time>
      </trkpt>
      <trkpt lat="49.74879" lon="1.41109">
        <ele>128</ele>
        <time>2015-10-14T14:25:36Z</time>
      </trkpt>
      <trkpt lat="49.74894" lon="1.41093">
        <ele>131</ele>
        <time>2015-10-14T14:25:54Z</time>
      </trkpt>
      <trkpt lat="49.74909" lon="1.41069">
        <ele>134</ele>
        <time>2015-10-14T14:26:08Z</time>
      </trkpt>
      <trkpt lat="49.74909" lon="1.41069">
        <ele>134</ele>
        <time>2015-10-14T14:26:16Z</time>
      </trkpt>
      <trkpt lat="49.74909" lon="1.41069">
        <ele>134</ele>
        <time>2015-10-14T14:26:17Z</time>
      </trkpt>
      <trkpt lat="49.7493" lon="1.41053">
        <ele>137</ele>
        <time>2015-10-14T14:26:49Z</time>
      </trkpt>
      <trkpt lat="49.74942" lon="1.41033">
        <ele>135</ele>
        <time>2015-10-14T14:26:56Z</time>
      </trkpt>
      <trkpt lat="49.74961" lon="1.41004">
        <ele>127</ele>
        <time>2015-10-14T14:27:11Z</time>
      </trkpt>
      <trkpt lat="49.74984" lon="1.40947">
        <ele>128</ele>
        <time>2015-10-14T14:27:27Z</time>
      </trkpt>
      <trkpt lat="49.74984" lon="1.40947">
        <ele>128</ele>
        <time>2015-10-14T14:27:34Z</time>
      </trkpt>
      <trkpt lat="49.74984" lon="1.40947">
        <ele>128</ele>
        <time>2015-10-14T14:27:35Z</time>
      </trkpt>
      <trkpt lat="49.74995" lon="1.40928">
        <ele>124</ele>
        <time>2015-10-14T14:27:47Z</time>
      </trkpt>
      <trkpt lat="49.7501" lon="1.40892">
        <ele>129</ele>
        <time>2015-10-14T14:27:56Z</time>
      </trkpt>
      <trkpt lat="49.75013" lon="1.40878">
        <ele>131</ele>
        <time>2015-10-14T14:28:10Z</time>
      </trkpt>
      <trkpt lat="49.75021" lon="1.40864">
        <ele>130</ele>
        <time>2015-10-14T14:28:18Z</time>
      </trkpt>
      <trkpt lat="49.75029" lon="1.40848">
        <ele>127</ele>
        <time>2015-10-14T14:28:32Z</time>
      </trkpt>
      <trkpt lat="49.75037" lon="1.40833">
        <ele>121</ele>
        <time>2015-10-14T14:28:43Z</time>
      </trkpt>
      <trkpt lat="49.75044" lon="1.40815">
        <ele>117</ele>
        <time>2015-10-14T14:28:58Z</time>
      </trkpt>
      <trkpt lat="49.75045" lon="1.40807">
        <ele>116</ele>
        <time>2015-10-14T14:29:00Z</time>
      </trkpt>
      <trkpt lat="49.75052" lon="1.40785">
        <ele>123</ele>
        <time>2015-10-14T14:29:13Z</time>
      </trkpt>
      <trkpt lat="49.75052" lon="1.40785">
        <ele>123</ele>
        <time>2015-10-14T14:29:18Z</time>
      </trkpt>
      <trkpt lat="49.75056" lon="1.40767">
        <ele>125</ele>
        <time>2015-10-14T14:29:24Z</time>
      </trkpt>
      <trkpt lat="49.75063" lon="1.40744">
        <ele>125</ele>
        <time>2015-10-14T14:29:37Z</time>
      </trkpt>
      <trkpt lat="49.75072" lon="1.40715">
        <ele>130</ele>
        <time>2015-10-14T14:29:45Z</time>
      </trkpt>
      <trkpt lat="49.75075" lon="1.40682">
        <ele>135</ele>
        <time>2015-10-14T14:29:53Z</time>
      </trkpt>
      <trkpt lat="49.75079" lon="1.40677">
        <ele>135</ele>
        <time>2015-10-14T14:29:56Z</time>
      </trkpt>
      <trkpt lat="49.75082" lon="1.40668">
        <ele>136</ele>
        <time>2015-10-14T14:30:07Z</time>
      </trkpt>
      <trkpt lat="49.75082" lon="1.40668">
        <ele>136</ele>
        <time>2015-10-14T14:30:15Z</time>
      </trkpt>
      <trkpt lat="49.75082" lon="1.40668">
        <ele>136</ele>
        <time>2015-10-14T14:30:16Z</time>
      </trkpt>
      <trkpt lat="49.75099" lon="1.4063">
        <ele>132</ele>
        <time>2015-10-14T14:30:45Z</time>
      </trkpt>
      <trkpt lat="49.75106" lon="1.40596">
        <ele>133</ele>
        <time>2015-10-14T14:30:51Z</time>
      </trkpt>
      <trkpt lat="49.75106" lon="1.40596">
        <ele>133</ele>
        <time>2015-10-14T14:30:57Z</time>
      </trkpt>
      <trkpt lat="49.7511" lon="1.40591">
        <ele>129</ele>
        <time>2015-10-14T14:30:58Z</time>
      </trkpt>
      <trkpt lat="49.75121" lon="1.40557">
        <ele>126</ele>
        <time>2015-10-14T14:31:09Z</time>
      </trkpt>
      <trkpt lat="49.75121" lon="1.40552">
        <ele>125</ele>
        <time>2015-10-14T14:31:10Z</time>
      </trkpt>
      <trkpt lat="49.75126" lon="1.40538">
        <ele>123</ele>
        <time>2015-10-14T14:31:20Z</time>
      </trkpt>
      <trkpt lat="49.75126" lon="1.40538">
        <ele>123</ele>
        <time>2015-10-14T14:31:25Z</time>
      </trkpt>
      <trkpt lat="49.75126" lon="1.40538">
        <ele>123</ele>
        <time>2015-10-14T14:31:26Z</time>
      </trkpt>
      <trkpt lat="49.75131" lon="1.40512">
        <ele>126</ele>
        <time>2015-10-14T14:31:40Z</time>
      </trkpt>
      <trkpt lat="49.75136" lon="1.40501">
        <ele>124</ele>
        <time>2015-10-14T14:31:46Z</time>
      </trkpt>
      <trkpt lat="49.75139" lon="1.40489">
        <ele>127</ele>
        <time>2015-10-14T14:31:59Z</time>
      </trkpt>
      <trkpt lat="49.7515" lon="1.40454">
        <ele>126</ele>
        <time>2015-10-14T14:32:07Z</time>
      </trkpt>
      <trkpt lat="49.75155" lon="1.40433">
        <ele>125</ele>
        <time>2015-10-14T14:32:21Z</time>
      </trkpt>
      <trkpt lat="49.75162" lon="1.40409">
        <ele>127</ele>
        <time>2015-10-14T14:32:27Z</time>
      </trkpt>
      <trkpt lat="49.75162" lon="1.40406">
        <ele>129</ele>
        <time>2015-10-14T14:32:29Z</time>
      </trkpt>
      <trkpt lat="49.75165" lon="1.40399">
        <ele>131</ele>
        <time>2015-10-14T14:32:40Z</time>
      </trkpt>
      <trkpt lat="49.75169" lon="1.4038">
        <ele>135</ele>
        <time>2015-10-14T14:32:53Z</time>
      </trkpt>
      <trkpt lat="49.75173" lon="1.40373">
        <ele>133</ele>
        <time>2015-10-14T14:32:58Z</time>
      </trkpt>
      <trkpt lat="49.75177" lon="1.40367">
        <ele>124</ele>
        <time>2015-10-14T14:33:09Z</time>
      </trkpt>
      <trkpt lat="49.75187" lon="1.40331">
        <ele>127</ele>
        <time>2015-10-14T14:33:26Z</time>
      </trkpt>
      <trkpt lat="49.75187" lon="1.40331">
        <ele>127</ele>
        <time>2015-10-14T14:33:33Z</time>
      </trkpt>
      <trkpt lat="49.75187" lon="1.40331">
        <ele>127</ele>
        <time>2015-10-14T14:33:34Z</time>
      </trkpt>
      <trkpt lat="49.75193" lon="1.40313">
        <ele>127</ele>
        <time>2015-10-14T14:33:43Z</time>
      </trkpt>
      <trkpt lat="49.75201" lon="1.40293">
        <ele>126</ele>
        <time>2015-10-14T14:33:50Z</time>
      </trkpt>
      <trkpt lat="49.75206" lon="1.40272">
        <ele>125</ele>
        <time>2015-10-14T14:34:04Z</time>
      </trkpt>
      <trkpt lat="49.7521" lon="1.40228">
        <ele>132</ele>
        <time>2015-10-14T14:34:22Z</time>
      </trkpt>
      <trkpt lat="49.75219" lon="1.40196">
        <ele>129</ele>
        <time>2015-10-14T14:34:38Z</time>
      </trkpt>
      <trkpt lat="49.75225" lon="1.40174">
        <ele>134</ele>
        <time>2015-10-14T14:34:47Z</time>
      </trkpt>
      <trkpt lat="49.75227" lon="1.40157">
        <ele>131</ele>
        <time>2015-10-14T14:34:55Z</time>
      </trkpt>
      <trkpt lat="49.75233" lon="1.40135">
        <ele>127</ele>
        <time>2015-10-14T14:35:08Z</time>
      </trkpt>
      <trkpt lat="49.75239" lon="1.4012">
        <ele>129</ele>
        <time>2015-10-14T14:35:22Z</time>
      </trkpt>
      <trkpt lat="49.75248" lon="1.40101">
        <ele>119</ele>
        <time>2015-10-14T14:35:37Z</time>
      </trkpt>
      <trkpt lat="49.75258" lon="1.40085">
        <ele>123</ele>
        <time>2015-10-14T14:35:52Z</time>
      </trkpt>
      <trkpt lat="49.75255" lon="1.40054">
        <ele>125</ele>
        <time>2015-10-14T14:36:09Z</time>
      </trkpt>
      <trkpt lat="49.75266" lon="1.40001">
        <ele>126</ele>
        <time>2015-10-14T14:37:58Z</time>
      </trkpt>
      <trkpt lat="49.75269" lon="1.39979">
        <ele>129</ele>
        <time>2015-10-14T14:38:07Z</time>
      </trkpt>
      <trkpt lat="49.75271" lon="1.39954">
        <ele>134</ele>
        <time>2015-10-14T14:38:16Z</time>
      </trkpt>
      <trkpt lat="49.75271" lon="1.39954">
        <ele>134</ele>
        <time>2015-10-14T14:38:22Z</time>
      </trkpt>
      <trkpt lat="49.75277" lon="1.39938">
        <ele>132</ele>
        <time>2015-10-14T14:38:26Z</time>
      </trkpt>
      <trkpt lat="49.75284" lon="1.39907">
        <ele>126</ele>
        <time>2015-10-14T14:38:43Z</time>
      </trkpt>
      <trkpt lat="49.75286" lon="1.39886">
        <ele>130</ele>
        <time>2015-10-14T14:38:47Z</time>
      </trkpt>
      <trkpt lat="49.75287" lon="1.3988">
        <ele>128</ele>
        <time>2015-10-14T14:39:02Z</time>
      </trkpt>
      <trkpt lat="49.75292" lon="1.39864">
        <ele>126</ele>
        <time>2015-10-14T14:39:13Z</time>
      </trkpt>
      <trkpt lat="49.753" lon="1.39823">
        <ele>125</ele>
        <time>2015-10-14T14:39:37Z</time>
      </trkpt>
      <trkpt lat="49.75308" lon="1.39797">
        <ele>126</ele>
        <time>2015-10-14T14:39:52Z</time>
      </trkpt>
      <trkpt lat="49.75312" lon="1.3978">
        <ele>126</ele>
        <time>2015-10-14T14:40:00Z</time>
      </trkpt>
      <trkpt lat="49.75315" lon="1.39761">
        <ele>128</ele>
        <time>2015-10-14T14:40:09Z</time>
      </trkpt>
      <trkpt lat="49.75321" lon="1.3973">
        <ele>129</ele>
        <time>2015-10-14T14:40:27Z</time>
      </trkpt>
      <trkpt lat="49.75327" lon="1.39701">
        <ele>129</ele>
        <time>2015-10-14T14:40:38Z</time>
      </trkpt>
      <trkpt lat="49.75331" lon="1.3968">
        <ele>123</ele>
        <time>2015-10-14T14:40:48Z</time>
      </trkpt>
      <trkpt lat="49.75335" lon="1.39667">
        <ele>122</ele>
        <time>2015-10-14T14:40:55Z</time>
      </trkpt>
      <trkpt lat="49.7534" lon="1.39655">
        <ele>122</ele>
        <time>2015-10-14T14:41:06Z</time>
      </trkpt>
      <trkpt lat="49.75347" lon="1.39627">
        <ele>125</ele>
        <time>2015-10-14T14:41:14Z</time>
      </trkpt>
      <trkpt lat="49.75351" lon="1.3961">
        <ele>123</ele>
        <time>2015-10-14T14:41:29Z</time>
      </trkpt>
      <trkpt lat="49.75355" lon="1.39594">
        <ele>125</ele>
        <time>2015-10-14T14:41:35Z</time>
      </trkpt>
      <trkpt lat="49.75354" lon="1.39589">
        <ele>124</ele>
        <time>2015-10-14T14:41:48Z</time>
      </trkpt>
      <trkpt lat="49.75361" lon="1.39567">
        <ele>124</ele>
        <time>2015-10-14T14:41:53Z</time>
      </trkpt>
      <trkpt lat="49.75358" lon="1.39565">
        <ele>124</ele>
        <time>2015-10-14T14:42:05Z</time>
      </trkpt>
      <trkpt lat="49.75362" lon="1.39518">
        <ele>122</ele>
        <time>2015-10-14T14:42:21Z</time>
      </trkpt>
      <trkpt lat="49.75367" lon="1.39485">
        <ele>121</ele>
        <time>2015-10-14T14:42:29Z</time>
      </trkpt>
      <trkpt lat="49.75373" lon="1.39472">
        <ele>121</ele>
        <time>2015-10-14T14:42:35Z</time>
      </trkpt>
      <trkpt lat="49.7538" lon="1.39454">
        <ele>118</ele>
        <time>2015-10-14T14:42:46Z</time>
      </trkpt>
      <trkpt lat="49.75387" lon="1.39441">
        <ele>121</ele>
        <time>2015-10-14T14:42:51Z</time>
      </trkpt>
      <trkpt lat="49.75398" lon="1.39432">
        <ele>118</ele>
        <time>2015-10-14T14:43:04Z</time>
      </trkpt>
      <trkpt lat="49.75398" lon="1.39432">
        <ele>118</ele>
        <time>2015-10-14T14:43:12Z</time>
      </trkpt>
      <trkpt lat="49.75393" lon="1.39411">
        <ele>118</ele>
        <time>2015-10-14T14:43:16Z</time>
      </trkpt>
      <trkpt lat="49.75389" lon="1.39403">
        <ele>117</ele>
        <time>2015-10-14T14:43:19Z</time>
      </trkpt>
      <trkpt lat="49.75393" lon="1.39401">
        <ele>117</ele>
        <time>2015-10-14T14:43:26Z</time>
      </trkpt>
      <trkpt lat="49.75404" lon="1.39386">
        <ele>116</ele>
        <time>2015-10-14T14:43:42Z</time>
      </trkpt>
      <trkpt lat="49.75412" lon="1.39339">
        <ele>122</ele>
        <time>2015-10-14T14:43:53Z</time>
      </trkpt>
      <trkpt lat="49.75419" lon="1.39325">
        <ele>127</ele>
        <time>2015-10-14T14:44:01Z</time>
      </trkpt>
      <trkpt lat="49.75423" lon="1.39321">
        <ele>126</ele>
        <time>2015-10-14T14:44:15Z</time>
      </trkpt>
      <trkpt lat="49.75424" lon="1.39296">
        <ele>127</ele>
        <time>2015-10-14T14:44:18Z</time>
      </trkpt>
      <trkpt lat="49.75431" lon="1.39287">
        <ele>127</ele>
        <time>2015-10-14T14:44:34Z</time>
      </trkpt>
      <trkpt lat="49.7545" lon="1.39269">
        <ele>121</ele>
        <time>2015-10-14T14:44:49Z</time>
      </trkpt>
      <trkpt lat="49.75456" lon="1.39249">
        <ele>115</ele>
        <time>2015-10-14T14:44:54Z</time>
      </trkpt>
      <trkpt lat="49.75456" lon="1.39249">
        <ele>115</ele>
        <time>2015-10-14T14:45:01Z</time>
      </trkpt>
      <trkpt lat="49.75456" lon="1.39249">
        <ele>115</ele>
        <time>2015-10-14T14:45:02Z</time>
      </trkpt>
      <trkpt lat="49.75463" lon="1.39232">
        <ele>122</ele>
        <time>2015-10-14T14:45:17Z</time>
      </trkpt>
      <trkpt lat="49.75475" lon="1.3919">
        <ele>119</ele>
        <time>2015-10-14T14:45:53Z</time>
      </trkpt>
      <trkpt lat="49.75488" lon="1.39164">
        <ele>123</ele>
        <time>2015-10-14T14:46:07Z</time>
      </trkpt>
      <trkpt lat="49.75488" lon="1.39143">
        <ele>125</ele>
        <time>2015-10-14T14:46:14Z</time>
      </trkpt>
      <trkpt lat="49.75502" lon="1.39126">
        <ele>125</ele>
        <time>2015-10-14T14:46:19Z</time>
      </trkpt>
      <trkpt lat="49.75507" lon="1.39116">
        <ele>122</ele>
        <time>2015-10-14T14:46:35Z</time>
      </trkpt>
      <trkpt lat="49.75512" lon="1.39099">
        <ele>119</ele>
        <time>2015-10-14T14:46:42Z</time>
      </trkpt>
      <trkpt lat="49.75519" lon="1.39081">
        <ele>116</ele>
        <time>2015-10-14T14:46:53Z</time>
      </trkpt>
      <trkpt lat="49.75527" lon="1.39065">
        <ele>117</ele>
        <time>2015-10-14T14:47:06Z</time>
      </trkpt>
      <trkpt lat="49.75541" lon="1.39038">
        <ele>113</ele>
        <time>2015-10-14T14:47:17Z</time>
      </trkpt>
      <trkpt lat="49.75551" lon="1.39016">
        <ele>114</ele>
        <time>2015-10-14T14:47:30Z</time>
      </trkpt>
      <trkpt lat="49.75567" lon="1.38999">
        <ele>122</ele>
        <time>2015-10-14T14:47:45Z</time>
      </trkpt>
      <trkpt lat="49.75574" lon="1.38981">
        <ele>119</ele>
        <time>2015-10-14T14:47:50Z</time>
      </trkpt>
      <trkpt lat="49.75574" lon="1.38981">
        <ele>119</ele>
        <time>2015-10-14T14:47:55Z</time>
      </trkpt>
      <trkpt lat="49.75574" lon="1.38981">
        <ele>119</ele>
        <time>2015-10-14T14:47:56Z</time>
      </trkpt>
      <trkpt lat="49.75591" lon="1.38953">
        <ele>121</ele>
        <time>2015-10-14T14:48:27Z</time>
      </trkpt>
      <trkpt lat="49.75601" lon="1.38936">
        <ele>118</ele>
        <time>2015-10-14T14:48:40Z</time>
      </trkpt>
      <trkpt lat="49.75623" lon="1.38873">
        <ele>124</ele>
        <time>2015-10-14T14:48:53Z</time>
      </trkpt>
      <trkpt lat="49.75624" lon="1.38871">
        <ele>124</ele>
        <time>2015-10-14T14:48:54Z</time>
      </trkpt>
      <trkpt lat="49.75634" lon="1.38863">
        <ele>124</ele>
        <time>2015-10-14T14:49:05Z</time>
      </trkpt>
      <trkpt lat="49.75641" lon="1.38857">
        <ele>124</ele>
        <time>2015-10-14T14:49:08Z</time>
      </trkpt>
      <trkpt lat="49.75641" lon="1.38848">
        <ele>124</ele>
        <time>2015-10-14T14:49:25Z</time>
      </trkpt>
      <trkpt lat="49.75652" lon="1.38809">
        <ele>129</ele>
        <time>2015-10-14T14:49:52Z</time>
      </trkpt>
      <trkpt lat="49.75658" lon="1.38798">
        <ele>132</ele>
        <time>2015-10-14T14:49:58Z</time>
      </trkpt>
      <trkpt lat="49.7568" lon="1.38738">
        <ele>135</ele>
        <time>2015-10-14T14:50:10Z</time>
      </trkpt>
      <trkpt lat="49.75692" lon="1.38752">
        <ele>121</ele>
        <time>2015-10-14T14:50:23Z</time>
      </trkpt>
      <trkpt lat="49.75702" lon="1.38719">
        <ele>123</ele>
        <time>2015-10-14T14:50:39Z</time>
      </trkpt>
      <trkpt lat="49.757" lon="1.38701">
        <ele>127</ele>
        <time>2015-10-14T14:50:46Z</time>
      </trkpt>
      <trkpt lat="49.75704" lon="1.38701">
        <ele>126</ele>
        <time>2015-10-14T14:50:55Z</time>
      </trkpt>
      <trkpt lat="49.75719" lon="1.38687">
        <ele>119</ele>
        <time>2015-10-14T14:51:11Z</time>
      </trkpt>
      <trkpt lat="49.75739" lon="1.38648">
        <ele>113</ele>
        <time>2015-10-14T14:51:26Z</time>
      </trkpt>
      <trkpt lat="49.75742" lon="1.38641">
        <ele>115</ele>
        <time>2015-10-14T14:51:30Z</time>
      </trkpt>
      <trkpt lat="49.75745" lon="1.38636">
        <ele>115</ele>
        <time>2015-10-14T14:51:41Z</time>
      </trkpt>
      <trkpt lat="49.75755" lon="1.38616">
        <ele>117</ele>
        <time>2015-10-14T14:51:57Z</time>
      </trkpt>
      <trkpt lat="49.7577" lon="1.38599">
        <ele>113</ele>
        <time>2015-10-14T14:52:07Z</time>
      </trkpt>
      <trkpt lat="49.75778" lon="1.38585">
        <ele>114</ele>
        <time>2015-10-14T14:52:13Z</time>
      </trkpt>
      <trkpt lat="49.75778" lon="1.38582">
        <ele>113</ele>
        <time>2015-10-14T14:52:22Z</time>
      </trkpt>
      <trkpt lat="49.75792" lon="1.38557">
        <ele>115</ele>
        <time>2015-10-14T14:52:39Z</time>
      </trkpt>
      <trkpt lat="49.75802" lon="1.38543">
        <ele>123</ele>
        <time>2015-10-14T14:52:46Z</time>
      </trkpt>
      <trkpt lat="49.75811" lon="1.38516">
        <ele>120</ele>
        <time>2015-10-14T14:52:59Z</time>
      </trkpt>
      <trkpt lat="49.75821" lon="1.38499">
        <ele>121</ele>
        <time>2015-10-14T14:53:10Z</time>
      </trkpt>
      <trkpt lat="49.75819" lon="1.38463">
        <ele>120</ele>
        <time>2015-10-14T14:53:28Z</time>
      </trkpt>
      <trkpt lat="49.75834" lon="1.38446">
        <ele>119</ele>
        <time>2015-10-14T14:53:34Z</time>
      </trkpt>
      <trkpt lat="49.75835" lon="1.38449">
        <ele>119</ele>
        <time>2015-10-14T14:53:42Z</time>
      </trkpt>
      <trkpt lat="49.75849" lon="1.38423">
        <ele>125</ele>
        <time>2015-10-14T14:54:02Z</time>
      </trkpt>
      <trkpt lat="49.75853" lon="1.38389">
        <ele>126</ele>
        <time>2015-10-14T14:54:10Z</time>
      </trkpt>
      <trkpt lat="49.75865" lon="1.38389">
        <ele>122</ele>
        <time>2015-10-14T14:54:16Z</time>
      </trkpt>
      <trkpt lat="49.75865" lon="1.38389">
        <ele>122</ele>
        <time>2015-10-14T14:54:21Z</time>
      </trkpt>
      <trkpt lat="49.75865" lon="1.38389">
        <ele>122</ele>
        <time>2015-10-14T14:54:22Z</time>
      </trkpt>
      <trkpt lat="49.75876" lon="1.38364">
        <ele>119</ele>
        <time>2015-10-14T14:54:33Z</time>
      </trkpt>
      <trkpt lat="49.75865" lon="1.38342">
        <ele>115</ele>
        <time>2015-10-14T14:54:44Z</time>
      </trkpt>
      <trkpt lat="49.75888" lon="1.38339">
        <ele>115</ele>
        <time>2015-10-14T14:54:52Z</time>
      </trkpt>
      <trkpt lat="49.75887" lon="1.38319">
        <ele>117</ele>
        <time>2015-10-14T14:54:59Z</time>
      </trkpt>
      <trkpt lat="49.75887" lon="1.38319">
        <ele>117</ele>
        <time>2015-10-14T14:55:05Z</time>
      </trkpt>
      <trkpt lat="49.75887" lon="1.38319">
        <ele>117</ele>
        <time>2015-10-14T14:55:08Z</time>
      </trkpt>
      <trkpt lat="49.75903" lon="1.38278">
        <ele>114</ele>
        <time>2015-10-14T14:55:22Z</time>
      </trkpt>
      <trkpt lat="49.75919" lon="1.38258">
        <ele>114</ele>
        <time>2015-10-14T14:55:38Z</time>
      </trkpt>
      <trkpt lat="49.75929" lon="1.38231">
        <ele>116</ele>
        <time>2015-10-14T14:55:55Z</time>
      </trkpt>
      <trkpt lat="49.75935" lon="1.38217">
        <ele>114</ele>
        <time>2015-10-14T14:56:06Z</time>
      </trkpt>
      <trkpt lat="49.75943" lon="1.38224">
        <ele>112</ele>
        <time>2015-10-14T14:56:20Z</time>
      </trkpt>
      <trkpt lat="49.75943" lon="1.38224">
        <ele>112</ele>
        <time>2015-10-14T14:56:27Z</time>
      </trkpt>
      <trkpt lat="49.75943" lon="1.38224">
        <ele>112</ele>
        <time>2015-10-14T14:56:28Z</time>
      </trkpt>
      <trkpt lat="49.7595" lon="1.38186">
        <ele>103</ele>
        <time>2015-10-14T14:58:26Z</time>
      </trkpt>
      <trkpt lat="49.75955" lon="1.38173">
        <ele>104</ele>
        <time>2015-10-14T14:58:35Z</time>
      </trkpt>
      <trkpt lat="49.75955" lon="1.38165">
        <ele>105</ele>
        <time>2015-10-14T14:58:38Z</time>
      </trkpt>
      <trkpt lat="49.75964" lon="1.38156">
        <ele>104</ele>
        <time>2015-10-14T14:58:51Z</time>
      </trkpt>
      <trkpt lat="49.75976" lon="1.38134">
        <ele>103</ele>
        <time>2015-10-14T14:59:08Z</time>
      </trkpt>
      <trkpt lat="49.75975" lon="1.38125">
        <ele>106</ele>
        <time>2015-10-14T14:59:13Z</time>
      </trkpt>
      <trkpt lat="49.75981" lon="1.38118">
        <ele>109</ele>
        <time>2015-10-14T14:59:24Z</time>
      </trkpt>
      <trkpt lat="49.75994" lon="1.38095">
        <ele>108</ele>
        <time>2015-10-14T14:59:39Z</time>
      </trkpt>
      <trkpt lat="49.75994" lon="1.38092">
        <ele>108</ele>
        <time>2015-10-14T14:59:41Z</time>
      </trkpt>
      <trkpt lat="49.76001" lon="1.38085">
        <ele>108</ele>
        <time>2015-10-14T14:59:51Z</time>
      </trkpt>
      <trkpt lat="49.76008" lon="1.38069">
        <ele>105</ele>
        <time>2015-10-14T14:59:58Z</time>
      </trkpt>
      <trkpt lat="49.76013" lon="1.38057">
        <ele>108</ele>
        <time>2015-10-14T15:00:12Z</time>
      </trkpt>
      <trkpt lat="49.76029" lon="1.38035">
        <ele>112</ele>
        <time>2015-10-14T15:00:28Z</time>
      </trkpt>
      <trkpt lat="49.76038" lon="1.3802">
        <ele>111</ele>
        <time>2015-10-14T15:00:39Z</time>
      </trkpt>
      <trkpt lat="49.76046" lon="1.37998">
        <ele>105</ele>
        <time>2015-10-14T15:00:55Z</time>
      </trkpt>
      <trkpt lat="49.76053" lon="1.37988">
        <ele>103</ele>
        <time>2015-10-14T15:01:02Z</time>
      </trkpt>
      <trkpt lat="49.76064" lon="1.37975">
        <ele>109</ele>
        <time>2015-10-14T15:01:18Z</time>
      </trkpt>
      <trkpt lat="49.7609" lon="1.37992">
        <ele>109</ele>
        <time>2015-10-14T15:02:59Z</time>
      </trkpt>
      <trkpt lat="49.76105" lon="1.3799">
        <ele>114</ele>
        <time>2015-10-14T15:03:15Z</time>
      </trkpt>
      <trkpt lat="49.7612" lon="1.37982">
        <ele>113</ele>
        <time>2015-10-14T15:03:31Z</time>
      </trkpt>
      <trkpt lat="49.76133" lon="1.37965">
        <ele>109</ele>
        <time>2015-10-14T15:03:41Z</time>
      </trkpt>
      <trkpt lat="49.76147" lon="1.37949">
        <ele>108</ele>
        <time>2015-10-14T15:03:57Z</time>
      </trkpt>
      <trkpt lat="49.76148" lon="1.3794">
        <ele>112</ele>
        <time>2015-10-14T15:04:04Z</time>
      </trkpt>
      <trkpt lat="49.76148" lon="1.37933">
        <ele>113</ele>
        <time>2015-10-14T15:04:15Z</time>
      </trkpt>
      <trkpt lat="49.76148" lon="1.37933">
        <ele>113</ele>
        <time>2015-10-14T15:04:21Z</time>
      </trkpt>
      <trkpt lat="49.76148" lon="1.37933">
        <ele>113</ele>
        <time>2015-10-14T15:04:23Z</time>
      </trkpt>
      <trkpt lat="49.76162" lon="1.37921">
        <ele>107</ele>
        <time>2015-10-14T15:05:01Z</time>
      </trkpt>
      <trkpt lat="49.76169" lon="1.37915">
        <ele>108</ele>
        <time>2015-10-14T15:05:09Z</time>
      </trkpt>
      <trkpt lat="49.76183" lon="1.37914">
        <ele>110</ele>
        <time>2015-10-14T15:05:19Z</time>
      </trkpt>
      <trkpt lat="49.76193" lon="1.37914">
        <ele>112</ele>
        <time>2015-10-14T15:05:31Z</time>
      </trkpt>
      <trkpt lat="49.76213" lon="1.37923">
        <ele>110</ele>
        <time>2015-10-14T15:05:48Z</time>
      </trkpt>
      <trkpt lat="49.76221" lon="1.37934">
        <ele>112</ele>
        <time>2015-10-14T15:05:58Z</time>
      </trkpt>
      <trkpt lat="49.76229" lon="1.37946">
        <ele>114</ele>
        <time>2015-10-14T15:06:09Z</time>
      </trkpt>
      <trkpt lat="49.76239" lon="1.3796">
        <ele>117</ele>
        <time>2015-10-14T15:06:23Z</time>
      </trkpt>
      <trkpt lat="49.76239" lon="1.3796">
        <ele>117</ele>
        <time>2015-10-14T15:06:31Z</time>
      </trkpt>
      <trkpt lat="49.76239" lon="1.3796">
        <ele>117</ele>
        <time>2015-10-14T15:06:32Z</time>
      </trkpt>
      <trkpt lat="49.76251" lon="1.37977">
        <ele>124</ele>
        <time>2015-10-14T15:07:03Z</time>
      </trkpt>
      <trkpt lat="49.76265" lon="1.37987">
        <ele>117</ele>
        <time>2015-10-14T15:07:14Z</time>
      </trkpt>
      <trkpt lat="49.76279" lon="1.3802">
        <ele>119</ele>
        <time>2015-10-14T15:07:37Z</time>
      </trkpt>
      <trkpt lat="49.76287" lon="1.3803">
        <ele>115</ele>
        <time>2015-10-14T15:07:47Z</time>
      </trkpt>
      <trkpt lat="49.76299" lon="1.38048">
        <ele>97</ele>
        <time>2015-10-14T15:08:01Z</time>
      </trkpt>
      <trkpt lat="49.76305" lon="1.38063">
        <ele>103</ele>
        <time>2015-10-14T15:08:15Z</time>
      </trkpt>
      <trkpt lat="49.7632" lon="1.38082">
        <ele>108</ele>
        <time>2015-10-14T15:08:33Z</time>
      </trkpt>
      <trkpt lat="49.76322" lon="1.38106">
        <ele>109</ele>
        <time>2015-10-14T15:08:46Z</time>
      </trkpt>
      <trkpt lat="49.76325" lon="1.38103">
        <ele>110</ele>
        <time>2015-10-14T15:08:55Z</time>
      </trkpt>
      <trkpt lat="49.76335" lon="1.38121">
        <ele>116</ele>
        <time>2015-10-14T15:09:10Z</time>
      </trkpt>
      <trkpt lat="49.76353" lon="1.3815">
        <ele>117</ele>
        <time>2015-10-14T15:09:30Z</time>
      </trkpt>
      <trkpt lat="49.76366" lon="1.38169">
        <ele>119</ele>
        <time>2015-10-14T15:09:46Z</time>
      </trkpt>
      <trkpt lat="49.7637" lon="1.38188">
        <ele>122</ele>
        <time>2015-10-14T15:09:58Z</time>
      </trkpt>
      <trkpt lat="49.7637" lon="1.38188">
        <ele>122</ele>
        <time>2015-10-14T15:10:03Z</time>
      </trkpt>
      <trkpt lat="49.7637" lon="1.38188">
        <ele>122</ele>
        <time>2015-10-14T15:10:04Z</time>
      </trkpt>
      <trkpt lat="49.7638" lon="1.3821">
        <ele>125</ele>
        <time>2015-10-14T15:10:16Z</time>
      </trkpt>
      <trkpt lat="49.76391" lon="1.38217">
        <ele>124</ele>
        <time>2015-10-14T15:10:31Z</time>
      </trkpt>
      <trkpt lat="49.76408" lon="1.38192">
        <ele>119</ele>
        <time>2015-10-14T15:10:55Z</time>
      </trkpt>
      <trkpt lat="49.76415" lon="1.38177">
        <ele>126</ele>
        <time>2015-10-14T15:11:05Z</time>
      </trkpt>
      <trkpt lat="49.76433" lon="1.3815">
        <ele>116</ele>
        <time>2015-10-14T15:11:19Z</time>
      </trkpt>
      <trkpt lat="49.76439" lon="1.38128">
        <ele>118</ele>
        <time>2015-10-14T15:11:37Z</time>
      </trkpt>
      <trkpt lat="49.76453" lon="1.38109">
        <ele>113</ele>
        <time>2015-10-14T15:11:48Z</time>
      </trkpt>
      <trkpt lat="49.76461" lon="1.38094">
        <ele>112</ele>
        <time>2015-10-14T15:12:00Z</time>
      </trkpt>
      <trkpt lat="49.76467" lon="1.38082">
        <ele>114</ele>
        <time>2015-10-14T15:12:11Z</time>
      </trkpt>
      <trkpt lat="49.76482" lon="1.38059">
        <ele>115</ele>
        <time>2015-10-14T15:12:30Z</time>
      </trkpt>
      <trkpt lat="49.76494" lon="1.38032">
        <ele>116</ele>
        <time>2015-10-14T15:12:49Z</time>
      </trkpt>
      <trkpt lat="49.76502" lon="1.3801">
        <ele>114</ele>
        <time>2015-10-14T15:13:07Z</time>
      </trkpt>
      <trkpt lat="49.76502" lon="1.3801">
        <ele>114</ele>
        <time>2015-10-14T15:13:12Z</time>
      </trkpt>
      <trkpt lat="49.76502" lon="1.3801">
        <ele>114</ele>
        <time>2015-10-14T15:13:13Z</time>
      </trkpt>
      <trkpt lat="49.7652" lon="1.37991">
        <ele>119</ele>
        <time>2015-10-14T15:13:26Z</time>
      </trkpt>
      <trkpt lat="49.76535" lon="1.37965">
        <ele>114</ele>
        <time>2015-10-14T15:13:43Z</time>
      </trkpt>
      <trkpt lat="49.76542" lon="1.37952">
        <ele>111</ele>
        <time>2015-10-14T15:13:53Z</time>
      </trkpt>
      <trkpt lat="49.76553" lon="1.37925">
        <ele>117</ele>
        <time>2015-10-14T15:14:16Z</time>
      </trkpt>
      <trkpt lat="49.76559" lon="1.37917">
        <ele>117</ele>
        <time>2015-10-14T15:14:21Z</time>
      </trkpt>
      <trkpt lat="49.76563" lon="1.37904">
        <ele>122</ele>
        <time>2015-10-14T15:14:32Z</time>
      </trkpt>
      <trkpt lat="49.76567" lon="1.37892">
        <ele>117</ele>
        <time>2015-10-14T15:14:37Z</time>
      </trkpt>
      <trkpt lat="49.76574" lon="1.37886">
        <ele>117</ele>
        <time>2015-10-14T15:14:46Z</time>
      </trkpt>
      <trkpt lat="49.76581" lon="1.37871">
        <ele>116</ele>
        <time>2015-10-14T15:14:53Z</time>
      </trkpt>
      <trkpt lat="49.76593" lon="1.37859">
        <ele>124</ele>
        <time>2015-10-14T15:15:08Z</time>
      </trkpt>
      <trkpt lat="49.76597" lon="1.37843">
        <ele>118</ele>
        <time>2015-10-14T15:15:16Z</time>
      </trkpt>
      <trkpt lat="49.76612" lon="1.37826">
        <ele>123</ele>
        <time>2015-10-14T15:15:35Z</time>
      </trkpt>
      <trkpt lat="49.76615" lon="1.37803">
        <ele>122</ele>
        <time>2015-10-14T15:15:53Z</time>
      </trkpt>
      <trkpt lat="49.76615" lon="1.37803">
        <ele>77</ele>
        <time>2015-10-14T15:18:06Z</time>
      </trkpt>
      <trkpt lat="49.76615" lon="1.37803">
        <ele>77</ele>
        <time>2015-10-14T15:18:09Z</time>
      </trkpt>
    </trkseg>
  </trk>
</gpx>